<?xml version="1.0" encoding="UTF-8" standalone="no" ?>
<gpx xmlns="http://www.topografix.com/GPX/1/1" xmlns:xsi="http://www.w3.org/2001/XMLSchema-instance" xsi:schemaLocation="http://www.topografix.com/GPX/1/1 http://www.topografix.com/GPX/1/1/gpx.xsd" version="1.1" creator="VisuGPX - https://www.visugpx.com">
  <metadata>
    <name>Bandol cote, Sanary-sur-Mer, la Seyne-sur-Mer </name>
  </metadata>
  <trk>
    <name><![CDATA[15337254-bandol cote]]></name>
    <trkseg>
      <trkpt lat="43.14116" lon="5.77923">
        <ele>43</ele>
        <time>2022-08-14T20:27:12Z</time>
      </trkpt>
      <trkpt lat="43.14085" lon="5.77871">
        <ele>43</ele>
        <time>2022-08-14T20:27:21Z</time>
      </trkpt>
      <trkpt lat="43.14076" lon="5.779">
        <ele>43</ele>
        <time>2022-08-14T20:27:25Z</time>
      </trkpt>
      <trkpt lat="43.14034" lon="5.78">
        <ele>41</ele>
        <time>2022-08-14T20:27:40Z</time>
      </trkpt>
      <trkpt lat="43.14008" lon="5.77986">
        <ele>38</ele>
        <time>2022-08-14T20:27:45Z</time>
      </trkpt>
      <trkpt lat="43.14002" lon="5.78005">
        <ele>37</ele>
        <time>2022-08-14T20:27:47Z</time>
      </trkpt>
      <trkpt lat="43.13999" lon="5.77985">
        <ele>37</ele>
        <time>2022-08-14T20:27:50Z</time>
      </trkpt>
      <trkpt lat="43.14" lon="5.77946">
        <ele>38</ele>
        <time>2022-08-14T20:27:55Z</time>
      </trkpt>
      <trkpt lat="43.14015" lon="5.77828">
        <ele>38</ele>
        <time>2022-08-14T20:28:11Z</time>
      </trkpt>
      <trkpt lat="43.14008" lon="5.77777">
        <ele>36</ele>
        <time>2022-08-14T20:28:17Z</time>
      </trkpt>
      <trkpt lat="43.14007" lon="5.77738">
        <ele>35</ele>
        <time>2022-08-14T20:28:23Z</time>
      </trkpt>
      <trkpt lat="43.14011" lon="5.77695">
        <ele>33</ele>
        <time>2022-08-14T20:28:28Z</time>
      </trkpt>
      <trkpt lat="43.14007" lon="5.77677">
        <ele>32</ele>
        <time>2022-08-14T20:28:31Z</time>
      </trkpt>
      <trkpt lat="43.13997" lon="5.77658">
        <ele>30</ele>
        <time>2022-08-14T20:28:34Z</time>
      </trkpt>
      <trkpt lat="43.13962" lon="5.77607">
        <ele>27</ele>
        <time>2022-08-14T20:28:43Z</time>
      </trkpt>
      <trkpt lat="43.13954" lon="5.77545">
        <ele>25</ele>
        <time>2022-08-14T20:28:51Z</time>
      </trkpt>
      <trkpt lat="43.13952" lon="5.77513">
        <ele>24</ele>
        <time>2022-08-14T20:28:55Z</time>
      </trkpt>
      <trkpt lat="43.13962" lon="5.77483">
        <ele>22</ele>
        <time>2022-08-14T20:28:59Z</time>
      </trkpt>
      <trkpt lat="43.14021" lon="5.77364">
        <ele>18</ele>
        <time>2022-08-14T20:29:18Z</time>
      </trkpt>
      <trkpt lat="43.14047" lon="5.77296">
        <ele>11</ele>
        <time>2022-08-14T20:29:28Z</time>
      </trkpt>
      <trkpt lat="43.1405" lon="5.77279">
        <ele>10</ele>
        <time>2022-08-14T20:29:30Z</time>
      </trkpt>
      <trkpt lat="43.14045" lon="5.77261">
        <ele>10</ele>
        <time>2022-08-14T20:29:33Z</time>
      </trkpt>
      <trkpt lat="43.14034" lon="5.77244">
        <ele>10</ele>
        <time>2022-08-14T20:29:36Z</time>
      </trkpt>
      <trkpt lat="43.14015" lon="5.77235">
        <ele>10</ele>
        <time>2022-08-14T20:29:39Z</time>
      </trkpt>
      <trkpt lat="43.1398" lon="5.77239">
        <ele>10</ele>
        <time>2022-08-14T20:29:46Z</time>
      </trkpt>
      <trkpt lat="43.1395" lon="5.77227">
        <ele>7</ele>
        <time>2022-08-14T20:29:51Z</time>
      </trkpt>
      <trkpt lat="43.13911" lon="5.77224">
        <ele>5</ele>
        <time>2022-08-14T20:29:58Z</time>
      </trkpt>
      <trkpt lat="43.13902" lon="5.77225">
        <ele>4</ele>
        <time>2022-08-14T20:30:00Z</time>
      </trkpt>
      <trkpt lat="43.13879" lon="5.77236">
        <ele>3</ele>
        <time>2022-08-14T20:30:04Z</time>
      </trkpt>
      <trkpt lat="43.13869" lon="5.77235">
        <ele>2</ele>
        <time>2022-08-14T20:30:06Z</time>
      </trkpt>
      <trkpt lat="43.13867" lon="5.77246">
        <ele>2</ele>
        <time>2022-08-14T20:30:07Z</time>
      </trkpt>
      <trkpt lat="43.13858" lon="5.77282">
        <ele>3</ele>
        <time>2022-08-14T20:30:12Z</time>
      </trkpt>
      <trkpt lat="43.13832" lon="5.7736">
        <ele>3</ele>
        <time>2022-08-14T20:30:23Z</time>
      </trkpt>
      <trkpt lat="43.13801" lon="5.77441">
        <ele>8</ele>
        <time>2022-08-14T20:30:35Z</time>
      </trkpt>
      <trkpt lat="43.1376" lon="5.77532">
        <ele>5</ele>
        <time>2022-08-14T20:30:49Z</time>
      </trkpt>
      <trkpt lat="43.1374" lon="5.77573">
        <ele>7</ele>
        <time>2022-08-14T20:30:55Z</time>
      </trkpt>
      <trkpt lat="43.13698" lon="5.77642">
        <ele>10</ele>
        <time>2022-08-14T20:31:07Z</time>
      </trkpt>
      <trkpt lat="43.13673" lon="5.77679">
        <ele>10</ele>
        <time>2022-08-14T20:31:14Z</time>
      </trkpt>
      <trkpt lat="43.1363" lon="5.77737">
        <ele>11</ele>
        <time>2022-08-14T20:31:24Z</time>
      </trkpt>
      <trkpt lat="43.13578" lon="5.778">
        <ele>9</ele>
        <time>2022-08-14T20:31:37Z</time>
      </trkpt>
      <trkpt lat="43.13561" lon="5.77824">
        <ele>10</ele>
        <time>2022-08-14T20:31:41Z</time>
      </trkpt>
      <trkpt lat="43.13542" lon="5.77856">
        <ele>13</ele>
        <time>2022-08-14T20:31:46Z</time>
      </trkpt>
      <trkpt lat="43.1353" lon="5.77874">
        <ele>14</ele>
        <time>2022-08-14T20:31:50Z</time>
      </trkpt>
      <trkpt lat="43.13474" lon="5.77926">
        <ele>13</ele>
        <time>2022-08-14T20:32:02Z</time>
      </trkpt>
      <trkpt lat="43.13378" lon="5.78002">
        <ele>18</ele>
        <time>2022-08-14T20:32:21Z</time>
      </trkpt>
      <trkpt lat="43.13363" lon="5.7801">
        <ele>17</ele>
        <time>2022-08-14T20:32:24Z</time>
      </trkpt>
      <trkpt lat="43.13278" lon="5.78046">
        <ele>17</ele>
        <time>2022-08-14T20:32:40Z</time>
      </trkpt>
      <trkpt lat="43.1314" lon="5.78128">
        <ele>17</ele>
        <time>2022-08-14T20:33:07Z</time>
      </trkpt>
      <trkpt lat="43.13059" lon="5.78199">
        <ele>19</ele>
        <time>2022-08-14T20:33:24Z</time>
      </trkpt>
      <trkpt lat="43.12988" lon="5.78266">
        <ele>21</ele>
        <time>2022-08-14T20:33:39Z</time>
      </trkpt>
      <trkpt lat="43.1293" lon="5.78324">
        <ele>23</ele>
        <time>2022-08-14T20:33:52Z</time>
      </trkpt>
      <trkpt lat="43.12924" lon="5.78313">
        <ele>22</ele>
        <time>2022-08-14T20:33:54Z</time>
      </trkpt>
      <trkpt lat="43.12888" lon="5.78292">
        <ele>23</ele>
        <time>2022-08-14T20:34:01Z</time>
      </trkpt>
      <trkpt lat="43.12879" lon="5.78279">
        <ele>23</ele>
        <time>2022-08-14T20:34:03Z</time>
      </trkpt>
      <trkpt lat="43.12874" lon="5.78276">
        <ele>23</ele>
        <time>2022-08-14T20:34:04Z</time>
      </trkpt>
      <trkpt lat="43.12866" lon="5.78249">
        <ele>22</ele>
        <time>2022-08-14T20:34:08Z</time>
      </trkpt>
      <trkpt lat="43.1286" lon="5.78205">
        <ele>21</ele>
        <time>2022-08-14T20:34:14Z</time>
      </trkpt>
      <trkpt lat="43.12855" lon="5.78165">
        <ele>19</ele>
        <time>2022-08-14T20:34:19Z</time>
      </trkpt>
      <trkpt lat="43.12846" lon="5.78028">
        <ele>16</ele>
        <time>2022-08-14T20:34:37Z</time>
      </trkpt>
      <trkpt lat="43.1285" lon="5.77993">
        <ele>14</ele>
        <time>2022-08-14T20:34:41Z</time>
      </trkpt>
      <trkpt lat="43.12852" lon="5.77921">
        <ele>11</ele>
        <time>2022-08-14T20:34:51Z</time>
      </trkpt>
      <trkpt lat="43.12848" lon="5.77909">
        <ele>11</ele>
        <time>2022-08-14T20:34:53Z</time>
      </trkpt>
      <trkpt lat="43.12794" lon="5.77793">
        <ele>11</ele>
        <time>2022-08-14T20:35:10Z</time>
      </trkpt>
      <trkpt lat="43.12781" lon="5.77803">
        <ele>13</ele>
        <time>2022-08-14T20:35:13Z</time>
      </trkpt>
      <trkpt lat="43.12773" lon="5.77812">
        <ele>15</ele>
        <time>2022-08-14T20:35:15Z</time>
      </trkpt>
      <trkpt lat="43.12736" lon="5.7782">
        <ele>19</ele>
        <time>2022-08-14T20:35:22Z</time>
      </trkpt>
      <trkpt lat="43.12683" lon="5.77726">
        <ele>22</ele>
        <time>2022-08-14T20:35:37Z</time>
      </trkpt>
      <trkpt lat="43.12491" lon="5.7773">
        <ele>24</ele>
        <time>2022-08-14T20:36:11Z</time>
      </trkpt>
      <trkpt lat="43.12487" lon="5.77595">
        <ele>25</ele>
        <time>2022-08-14T20:36:29Z</time>
      </trkpt>
      <trkpt lat="43.12484" lon="5.77586">
        <ele>25</ele>
        <time>2022-08-14T20:36:30Z</time>
      </trkpt>
      <trkpt lat="43.12474" lon="5.77583">
        <ele>25</ele>
        <time>2022-08-14T20:36:32Z</time>
      </trkpt>
      <trkpt lat="43.123" lon="5.77699">
        <ele>11</ele>
        <time>2022-08-14T20:37:06Z</time>
      </trkpt>
      <trkpt lat="43.12286" lon="5.77718">
        <ele>10</ele>
        <time>2022-08-14T20:37:10Z</time>
      </trkpt>
      <trkpt lat="43.12273" lon="5.77725">
        <ele>8</ele>
        <time>2022-08-14T20:37:12Z</time>
      </trkpt>
      <trkpt lat="43.12234" lon="5.77736">
        <ele>7</ele>
        <time>2022-08-14T20:37:19Z</time>
      </trkpt>
      <trkpt lat="43.12227" lon="5.7774">
        <ele>9</ele>
        <time>2022-08-14T20:37:21Z</time>
      </trkpt>
      <trkpt lat="43.122" lon="5.77745">
        <ele>15</ele>
        <time>2022-08-14T20:37:26Z</time>
      </trkpt>
      <trkpt lat="43.12187" lon="5.77737">
        <ele>16</ele>
        <time>2022-08-14T20:37:28Z</time>
      </trkpt>
      <trkpt lat="43.12168" lon="5.77699">
        <ele>14</ele>
        <time>2022-08-14T20:37:34Z</time>
      </trkpt>
      <trkpt lat="43.12146" lon="5.77668">
        <ele>13</ele>
        <time>2022-08-14T20:37:40Z</time>
      </trkpt>
      <trkpt lat="43.12136" lon="5.7766">
        <ele>13</ele>
        <time>2022-08-14T20:37:42Z</time>
      </trkpt>
      <trkpt lat="43.12121" lon="5.77657">
        <ele>15</ele>
        <time>2022-08-14T20:37:44Z</time>
      </trkpt>
      <trkpt lat="43.12019" lon="5.77675">
        <ele>20</ele>
        <time>2022-08-14T20:38:03Z</time>
      </trkpt>
      <trkpt lat="43.12003" lon="5.77688">
        <ele>21</ele>
        <time>2022-08-14T20:38:06Z</time>
      </trkpt>
      <trkpt lat="43.11936" lon="5.77774">
        <ele>24</ele>
        <time>2022-08-14T20:38:22Z</time>
      </trkpt>
      <trkpt lat="43.11928" lon="5.77782">
        <ele>24</ele>
        <time>2022-08-14T20:38:24Z</time>
      </trkpt>
      <trkpt lat="43.11918" lon="5.77787">
        <ele>23</ele>
        <time>2022-08-14T20:38:26Z</time>
      </trkpt>
      <trkpt lat="43.11888" lon="5.77782">
        <ele>24</ele>
        <time>2022-08-14T20:38:31Z</time>
      </trkpt>
      <trkpt lat="43.11887" lon="5.77777">
        <ele>24</ele>
        <time>2022-08-14T20:38:32Z</time>
      </trkpt>
      <trkpt lat="43.11883" lon="5.77773">
        <ele>25</ele>
        <time>2022-08-14T20:38:33Z</time>
      </trkpt>
      <trkpt lat="43.11884" lon="5.77763">
        <ele>24</ele>
        <time>2022-08-14T20:38:34Z</time>
      </trkpt>
      <trkpt lat="43.11897" lon="5.77731">
        <ele>25</ele>
        <time>2022-08-14T20:38:39Z</time>
      </trkpt>
      <trkpt lat="43.11945" lon="5.77648">
        <ele>27</ele>
        <time>2022-08-14T20:38:53Z</time>
      </trkpt>
      <trkpt lat="43.11959" lon="5.77623">
        <ele>27</ele>
        <time>2022-08-14T20:38:57Z</time>
      </trkpt>
      <trkpt lat="43.11972" lon="5.77591">
        <ele>25</ele>
        <time>2022-08-14T20:39:02Z</time>
      </trkpt>
      <trkpt lat="43.11978" lon="5.77544">
        <ele>25</ele>
        <time>2022-08-14T20:39:08Z</time>
      </trkpt>
      <trkpt lat="43.11981" lon="5.77508">
        <ele>25</ele>
        <time>2022-08-14T20:39:13Z</time>
      </trkpt>
      <trkpt lat="43.11976" lon="5.77477">
        <ele>24</ele>
        <time>2022-08-14T20:39:17Z</time>
      </trkpt>
      <trkpt lat="43.11966" lon="5.77446">
        <ele>23</ele>
        <time>2022-08-14T20:39:21Z</time>
      </trkpt>
      <trkpt lat="43.11948" lon="5.77418">
        <ele>24</ele>
        <time>2022-08-14T20:39:26Z</time>
      </trkpt>
      <trkpt lat="43.11924" lon="5.77393">
        <ele>26</ele>
        <time>2022-08-14T20:39:31Z</time>
      </trkpt>
      <trkpt lat="43.11901" lon="5.77388">
        <ele>27</ele>
        <time>2022-08-14T20:39:35Z</time>
      </trkpt>
      <trkpt lat="43.11887" lon="5.77391">
        <ele>28</ele>
        <time>2022-08-14T20:39:38Z</time>
      </trkpt>
      <trkpt lat="43.11867" lon="5.7739">
        <ele>28</ele>
        <time>2022-08-14T20:39:41Z</time>
      </trkpt>
      <trkpt lat="43.11843" lon="5.77382">
        <ele>28</ele>
        <time>2022-08-14T20:39:46Z</time>
      </trkpt>
      <trkpt lat="43.11787" lon="5.77311">
        <ele>28</ele>
        <time>2022-08-14T20:39:59Z</time>
      </trkpt>
      <trkpt lat="43.11759" lon="5.77276">
        <ele>30</ele>
        <time>2022-08-14T20:40:06Z</time>
      </trkpt>
      <trkpt lat="43.11747" lon="5.7728">
        <ele>30</ele>
        <time>2022-08-14T20:40:08Z</time>
      </trkpt>
      <trkpt lat="43.11733" lon="5.77291">
        <ele>27</ele>
        <time>2022-08-14T20:40:11Z</time>
      </trkpt>
      <trkpt lat="43.11748" lon="5.77392">
        <ele>28</ele>
        <time>2022-08-14T20:40:25Z</time>
      </trkpt>
      <trkpt lat="43.11757" lon="5.775">
        <ele>26</ele>
        <time>2022-08-14T20:40:39Z</time>
      </trkpt>
      <trkpt lat="43.11777" lon="5.77588">
        <ele>27</ele>
        <time>2022-08-14T20:40:51Z</time>
      </trkpt>
      <trkpt lat="43.11766" lon="5.77746">
        <ele>24</ele>
        <time>2022-08-14T20:41:11Z</time>
      </trkpt>
      <trkpt lat="43.11741" lon="5.77805">
        <ele>25</ele>
        <time>2022-08-14T20:41:20Z</time>
      </trkpt>
      <trkpt lat="43.11717" lon="5.77867">
        <ele>24</ele>
        <time>2022-08-14T20:41:29Z</time>
      </trkpt>
      <trkpt lat="43.11706" lon="5.77903">
        <ele>24</ele>
        <time>2022-08-14T20:41:34Z</time>
      </trkpt>
      <trkpt lat="43.11706" lon="5.77924">
        <ele>25</ele>
        <time>2022-08-14T20:41:37Z</time>
      </trkpt>
      <trkpt lat="43.11713" lon="5.77944">
        <ele>26</ele>
        <time>2022-08-14T20:41:40Z</time>
      </trkpt>
      <trkpt lat="43.11748" lon="5.78015">
        <ele>33</ele>
        <time>2022-08-14T20:41:51Z</time>
      </trkpt>
      <trkpt lat="43.11755" lon="5.78029">
        <ele>34</ele>
        <time>2022-08-14T20:41:53Z</time>
      </trkpt>
      <trkpt lat="43.11691" lon="5.78158">
        <ele>23</ele>
        <time>2022-08-14T20:42:14Z</time>
      </trkpt>
      <trkpt lat="43.11687" lon="5.78175">
        <ele>22</ele>
        <time>2022-08-14T20:42:16Z</time>
      </trkpt>
      <trkpt lat="43.11685" lon="5.78218">
        <ele>22</ele>
        <time>2022-08-14T20:42:21Z</time>
      </trkpt>
      <trkpt lat="43.11669" lon="5.78286">
        <ele>18</ele>
        <time>2022-08-14T20:42:31Z</time>
      </trkpt>
      <trkpt lat="43.11665" lon="5.78311">
        <ele>17</ele>
        <time>2022-08-14T20:42:34Z</time>
      </trkpt>
      <trkpt lat="43.11663" lon="5.78346">
        <ele>16</ele>
        <time>2022-08-14T20:42:39Z</time>
      </trkpt>
      <trkpt lat="43.11651" lon="5.78372">
        <ele>14</ele>
        <time>2022-08-14T20:42:43Z</time>
      </trkpt>
      <trkpt lat="43.11644" lon="5.78407">
        <ele>12</ele>
        <time>2022-08-14T20:42:47Z</time>
      </trkpt>
      <trkpt lat="43.11644" lon="5.78447">
        <ele>13</ele>
        <time>2022-08-14T20:42:53Z</time>
      </trkpt>
      <trkpt lat="43.1162" lon="5.78583">
        <ele>9</ele>
        <time>2022-08-14T20:43:11Z</time>
      </trkpt>
      <trkpt lat="43.11618" lon="5.78613">
        <ele>9</ele>
        <time>2022-08-14T20:43:15Z</time>
      </trkpt>
      <trkpt lat="43.11619" lon="5.78645">
        <ele>9</ele>
        <time>2022-08-14T20:43:19Z</time>
      </trkpt>
      <trkpt lat="43.11622" lon="5.7867">
        <ele>9</ele>
        <time>2022-08-14T20:43:22Z</time>
      </trkpt>
      <trkpt lat="43.11627" lon="5.78688">
        <ele>9</ele>
        <time>2022-08-14T20:43:25Z</time>
      </trkpt>
      <trkpt lat="43.11662" lon="5.78766">
        <ele>11</ele>
        <time>2022-08-14T20:43:36Z</time>
      </trkpt>
      <trkpt lat="43.11667" lon="5.78779">
        <ele>12</ele>
        <time>2022-08-14T20:43:38Z</time>
      </trkpt>
      <trkpt lat="43.11668" lon="5.78793">
        <ele>12</ele>
        <time>2022-08-14T20:43:40Z</time>
      </trkpt>
      <trkpt lat="43.11653" lon="5.78895">
        <ele>13</ele>
        <time>2022-08-14T20:43:54Z</time>
      </trkpt>
      <trkpt lat="43.11649" lon="5.78913">
        <ele>13</ele>
        <time>2022-08-14T20:43:56Z</time>
      </trkpt>
      <trkpt lat="43.11639" lon="5.78942">
        <ele>13</ele>
        <time>2022-08-14T20:44:00Z</time>
      </trkpt>
      <trkpt lat="43.11627" lon="5.78997">
        <ele>14</ele>
        <time>2022-08-14T20:44:08Z</time>
      </trkpt>
      <trkpt lat="43.11625" lon="5.79004">
        <ele>14</ele>
        <time>2022-08-14T20:44:09Z</time>
      </trkpt>
      <trkpt lat="43.11622" lon="5.79004">
        <ele>13</ele>
        <time>2022-08-14T20:44:09Z</time>
      </trkpt>
      <trkpt lat="43.11619" lon="5.79007">
        <ele>13</ele>
        <time>2022-08-14T20:44:10Z</time>
      </trkpt>
      <trkpt lat="43.11617" lon="5.79011">
        <ele>13</ele>
        <time>2022-08-14T20:44:11Z</time>
      </trkpt>
      <trkpt lat="43.11617" lon="5.79016">
        <ele>13</ele>
        <time>2022-08-14T20:44:11Z</time>
      </trkpt>
      <trkpt lat="43.11619" lon="5.79021">
        <ele>14</ele>
        <time>2022-08-14T20:44:12Z</time>
      </trkpt>
      <trkpt lat="43.11623" lon="5.79023">
        <ele>15</ele>
        <time>2022-08-14T20:44:13Z</time>
      </trkpt>
      <trkpt lat="43.11626" lon="5.79023">
        <ele>15</ele>
        <time>2022-08-14T20:44:13Z</time>
      </trkpt>
      <trkpt lat="43.11624" lon="5.79096">
        <ele>18</ele>
        <time>2022-08-14T20:44:23Z</time>
      </trkpt>
      <trkpt lat="43.11611" lon="5.79264">
        <ele>14</ele>
        <time>2022-08-14T20:44:45Z</time>
      </trkpt>
      <trkpt lat="43.11611" lon="5.79358">
        <ele>14</ele>
        <time>2022-08-14T20:44:57Z</time>
      </trkpt>
      <trkpt lat="43.11612" lon="5.7939">
        <ele>14</ele>
        <time>2022-08-14T20:45:01Z</time>
      </trkpt>
      <trkpt lat="43.11615" lon="5.79413">
        <ele>14</ele>
        <time>2022-08-14T20:45:04Z</time>
      </trkpt>
      <trkpt lat="43.11623" lon="5.79446">
        <ele>14</ele>
        <time>2022-08-14T20:45:09Z</time>
      </trkpt>
      <trkpt lat="43.11673" lon="5.79575">
        <ele>12</ele>
        <time>2022-08-14T20:45:28Z</time>
      </trkpt>
      <trkpt lat="43.1168" lon="5.79614">
        <ele>13</ele>
        <time>2022-08-14T20:45:33Z</time>
      </trkpt>
      <trkpt lat="43.11698" lon="5.79682">
        <ele>14</ele>
        <time>2022-08-14T20:45:42Z</time>
      </trkpt>
      <trkpt lat="43.11717" lon="5.79733">
        <ele>13</ele>
        <time>2022-08-14T20:45:50Z</time>
      </trkpt>
      <trkpt lat="43.11722" lon="5.79752">
        <ele>13</ele>
        <time>2022-08-14T20:45:52Z</time>
      </trkpt>
      <trkpt lat="43.11726" lon="5.79757">
        <ele>13</ele>
        <time>2022-08-14T20:45:53Z</time>
      </trkpt>
      <trkpt lat="43.11725" lon="5.79765">
        <ele>13</ele>
        <time>2022-08-14T20:45:54Z</time>
      </trkpt>
      <trkpt lat="43.11729" lon="5.79772">
        <ele>12</ele>
        <time>2022-08-14T20:45:55Z</time>
      </trkpt>
      <trkpt lat="43.11733" lon="5.79802">
        <ele>11</ele>
        <time>2022-08-14T20:45:59Z</time>
      </trkpt>
      <trkpt lat="43.11733" lon="5.79869">
        <ele>10</ele>
        <time>2022-08-14T20:46:08Z</time>
      </trkpt>
      <trkpt lat="43.11748" lon="5.79938">
        <ele>8</ele>
        <time>2022-08-14T20:46:17Z</time>
      </trkpt>
      <trkpt lat="43.11756" lon="5.79969">
        <ele>7</ele>
        <time>2022-08-14T20:46:22Z</time>
      </trkpt>
      <trkpt lat="43.11768" lon="5.80006">
        <ele>6</ele>
        <time>2022-08-14T20:46:27Z</time>
      </trkpt>
      <trkpt lat="43.11778" lon="5.8003">
        <ele>5</ele>
        <time>2022-08-14T20:46:31Z</time>
      </trkpt>
      <trkpt lat="43.1178" lon="5.80039">
        <ele>5</ele>
        <time>2022-08-14T20:46:32Z</time>
      </trkpt>
      <trkpt lat="43.11781" lon="5.80061">
        <ele>5</ele>
        <time>2022-08-14T20:46:35Z</time>
      </trkpt>
      <trkpt lat="43.11777" lon="5.80118">
        <ele>4</ele>
        <time>2022-08-14T20:46:42Z</time>
      </trkpt>
      <trkpt lat="43.11775" lon="5.80171">
        <ele>4</ele>
        <time>2022-08-14T20:46:49Z</time>
      </trkpt>
      <trkpt lat="43.11769" lon="5.80212">
        <ele>4</ele>
        <time>2022-08-14T20:46:54Z</time>
      </trkpt>
      <trkpt lat="43.11764" lon="5.80233">
        <ele>3</ele>
        <time>2022-08-14T20:46:57Z</time>
      </trkpt>
      <trkpt lat="43.11752" lon="5.80264">
        <ele>3</ele>
        <time>2022-08-14T20:47:02Z</time>
      </trkpt>
      <trkpt lat="43.11733" lon="5.80344">
        <ele>5</ele>
        <time>2022-08-14T20:47:13Z</time>
      </trkpt>
      <trkpt lat="43.11725" lon="5.8036">
        <ele>5</ele>
        <time>2022-08-14T20:47:15Z</time>
      </trkpt>
      <trkpt lat="43.11695" lon="5.80404">
        <ele>5</ele>
        <time>2022-08-14T20:47:23Z</time>
      </trkpt>
      <trkpt lat="43.11678" lon="5.80433">
        <ele>4</ele>
        <time>2022-08-14T20:47:28Z</time>
      </trkpt>
      <trkpt lat="43.11659" lon="5.80475">
        <ele>5</ele>
        <time>2022-08-14T20:47:34Z</time>
      </trkpt>
      <trkpt lat="43.11648" lon="5.80511">
        <ele>5</ele>
        <time>2022-08-14T20:47:39Z</time>
      </trkpt>
      <trkpt lat="43.11642" lon="5.80537">
        <ele>5</ele>
        <time>2022-08-14T20:47:43Z</time>
      </trkpt>
      <trkpt lat="43.11637" lon="5.80544">
        <ele>5</ele>
        <time>2022-08-14T20:47:44Z</time>
      </trkpt>
      <trkpt lat="43.11625" lon="5.80574">
        <ele>5</ele>
        <time>2022-08-14T20:47:49Z</time>
      </trkpt>
      <trkpt lat="43.11621" lon="5.80593">
        <ele>4</ele>
        <time>2022-08-14T20:47:51Z</time>
      </trkpt>
      <trkpt lat="43.11618" lon="5.80599">
        <ele>4</ele>
        <time>2022-08-14T20:47:52Z</time>
      </trkpt>
      <trkpt lat="43.11613" lon="5.80598">
        <ele>4</ele>
        <time>2022-08-14T20:47:53Z</time>
      </trkpt>
      <trkpt lat="43.11608" lon="5.806">
        <ele>4</ele>
        <time>2022-08-14T20:47:54Z</time>
      </trkpt>
      <trkpt lat="43.11604" lon="5.80607">
        <ele>4</ele>
        <time>2022-08-14T20:47:55Z</time>
      </trkpt>
      <trkpt lat="43.11603" lon="5.80616">
        <ele>4</ele>
        <time>2022-08-14T20:47:56Z</time>
      </trkpt>
      <trkpt lat="43.11605" lon="5.80624">
        <ele>3</ele>
        <time>2022-08-14T20:47:57Z</time>
      </trkpt>
      <trkpt lat="43.11608" lon="5.80627">
        <ele>3</ele>
        <time>2022-08-14T20:47:58Z</time>
      </trkpt>
      <trkpt lat="43.11604" lon="5.80649">
        <ele>3</ele>
        <time>2022-08-14T20:48:01Z</time>
      </trkpt>
      <trkpt lat="43.11589" lon="5.80702">
        <ele>2</ele>
        <time>2022-08-14T20:48:08Z</time>
      </trkpt>
      <trkpt lat="43.11577" lon="5.80743">
        <ele>2</ele>
        <time>2022-08-14T20:48:14Z</time>
      </trkpt>
      <trkpt lat="43.1157" lon="5.80767">
        <ele>2</ele>
        <time>2022-08-14T20:48:18Z</time>
      </trkpt>
      <trkpt lat="43.11566" lon="5.80771">
        <ele>2</ele>
        <time>2022-08-14T20:48:18Z</time>
      </trkpt>
      <trkpt lat="43.11563" lon="5.80784">
        <ele>2</ele>
        <time>2022-08-14T20:48:20Z</time>
      </trkpt>
      <trkpt lat="43.11553" lon="5.80821">
        <ele>2</ele>
        <time>2022-08-14T20:48:25Z</time>
      </trkpt>
      <trkpt lat="43.11543" lon="5.80844">
        <ele>2</ele>
        <time>2022-08-14T20:48:29Z</time>
      </trkpt>
      <trkpt lat="43.11521" lon="5.8088">
        <ele>3</ele>
        <time>2022-08-14T20:48:35Z</time>
      </trkpt>
      <trkpt lat="43.11516" lon="5.80885">
        <ele>3</ele>
        <time>2022-08-14T20:48:36Z</time>
      </trkpt>
      <trkpt lat="43.11503" lon="5.8089">
        <ele>3</ele>
        <time>2022-08-14T20:48:38Z</time>
      </trkpt>
      <trkpt lat="43.11286" lon="5.81102">
        <ele>3</ele>
        <time>2022-08-14T20:49:26Z</time>
      </trkpt>
      <trkpt lat="43.1128" lon="5.81109">
        <ele>3</ele>
        <time>2022-08-14T20:49:27Z</time>
      </trkpt>
      <trkpt lat="43.11279" lon="5.81113">
        <ele>3</ele>
        <time>2022-08-14T20:49:28Z</time>
      </trkpt>
      <trkpt lat="43.11283" lon="5.81116">
        <ele>3</ele>
        <time>2022-08-14T20:49:29Z</time>
      </trkpt>
      <trkpt lat="43.11285" lon="5.8112">
        <ele>3</ele>
        <time>2022-08-14T20:49:29Z</time>
      </trkpt>
      <trkpt lat="43.11281" lon="5.81129">
        <ele>3</ele>
        <time>2022-08-14T20:49:31Z</time>
      </trkpt>
      <trkpt lat="43.11281" lon="5.81134">
        <ele>4</ele>
        <time>2022-08-14T20:49:31Z</time>
      </trkpt>
      <trkpt lat="43.11172" lon="5.81195">
        <ele>2</ele>
        <time>2022-08-14T20:49:52Z</time>
      </trkpt>
      <trkpt lat="43.11011" lon="5.81278">
        <ele>2</ele>
        <time>2022-08-14T20:50:23Z</time>
      </trkpt>
      <trkpt lat="43.10894" lon="5.81338">
        <ele>3</ele>
        <time>2022-08-14T20:50:45Z</time>
      </trkpt>
      <trkpt lat="43.10868" lon="5.81347">
        <ele>3</ele>
        <time>2022-08-14T20:50:50Z</time>
      </trkpt>
      <trkpt lat="43.10842" lon="5.81365">
        <ele>3</ele>
        <time>2022-08-14T20:50:55Z</time>
      </trkpt>
      <trkpt lat="43.10818" lon="5.81378">
        <ele>4</ele>
        <time>2022-08-14T20:51:00Z</time>
      </trkpt>
      <trkpt lat="43.10812" lon="5.81384">
        <ele>4</ele>
        <time>2022-08-14T20:51:01Z</time>
      </trkpt>
      <trkpt lat="43.10802" lon="5.81378">
        <ele>4</ele>
        <time>2022-08-14T20:51:03Z</time>
      </trkpt>
      <trkpt lat="43.10754" lon="5.814">
        <ele>5</ele>
        <time>2022-08-14T20:51:12Z</time>
      </trkpt>
      <trkpt lat="43.10713" lon="5.81426">
        <ele>5</ele>
        <time>2022-08-14T20:51:20Z</time>
      </trkpt>
      <trkpt lat="43.10695" lon="5.81431">
        <ele>5</ele>
        <time>2022-08-14T20:51:23Z</time>
      </trkpt>
      <trkpt lat="43.10687" lon="5.8143">
        <ele>5</ele>
        <time>2022-08-14T20:51:25Z</time>
      </trkpt>
      <trkpt lat="43.10681" lon="5.81422">
        <ele>4</ele>
        <time>2022-08-14T20:51:26Z</time>
      </trkpt>
      <trkpt lat="43.10674" lon="5.81418">
        <ele>3</ele>
        <time>2022-08-14T20:51:27Z</time>
      </trkpt>
      <trkpt lat="43.10664" lon="5.81422">
        <ele>3</ele>
        <time>2022-08-14T20:51:29Z</time>
      </trkpt>
      <trkpt lat="43.10646" lon="5.81417">
        <ele>4</ele>
        <time>2022-08-14T20:51:33Z</time>
      </trkpt>
      <trkpt lat="43.10613" lon="5.814">
        <ele>4</ele>
        <time>2022-08-14T20:51:39Z</time>
      </trkpt>
      <trkpt lat="43.1047" lon="5.81311">
        <ele>9</ele>
        <time>2022-08-14T20:52:07Z</time>
      </trkpt>
      <trkpt lat="43.10447" lon="5.813">
        <ele>9</ele>
        <time>2022-08-14T20:52:11Z</time>
      </trkpt>
      <trkpt lat="43.10414" lon="5.81289">
        <ele>10</ele>
        <time>2022-08-14T20:52:17Z</time>
      </trkpt>
      <trkpt lat="43.10383" lon="5.81282">
        <ele>10</ele>
        <time>2022-08-14T20:52:23Z</time>
      </trkpt>
      <trkpt lat="43.1031" lon="5.81286">
        <ele>13</ele>
        <time>2022-08-14T20:52:36Z</time>
      </trkpt>
      <trkpt lat="43.10294" lon="5.81283">
        <ele>14</ele>
        <time>2022-08-14T20:52:39Z</time>
      </trkpt>
      <trkpt lat="43.10221" lon="5.81264">
        <ele>18</ele>
        <time>2022-08-14T20:52:52Z</time>
      </trkpt>
      <trkpt lat="43.10107" lon="5.81214">
        <ele>23</ele>
        <time>2022-08-14T20:53:13Z</time>
      </trkpt>
      <trkpt lat="43.10069" lon="5.81206">
        <ele>24</ele>
        <time>2022-08-14T20:53:20Z</time>
      </trkpt>
      <trkpt lat="43.10057" lon="5.81202">
        <ele>24</ele>
        <time>2022-08-14T20:53:22Z</time>
      </trkpt>
      <trkpt lat="43.10004" lon="5.81198">
        <ele>24</ele>
        <time>2022-08-14T20:53:32Z</time>
      </trkpt>
      <trkpt lat="43.0985" lon="5.81207">
        <ele>10</ele>
        <time>2022-08-14T20:53:59Z</time>
      </trkpt>
      <trkpt lat="43.0979" lon="5.81215">
        <ele>6</ele>
        <time>2022-08-14T20:54:10Z</time>
      </trkpt>
      <trkpt lat="43.09747" lon="5.81225">
        <ele>4</ele>
        <time>2022-08-14T20:54:18Z</time>
      </trkpt>
      <trkpt lat="43.09699" lon="5.81238">
        <ele>4</ele>
        <time>2022-08-14T20:54:26Z</time>
      </trkpt>
      <trkpt lat="43.09554" lon="5.81285">
        <ele>4</ele>
        <time>2022-08-14T20:54:53Z</time>
      </trkpt>
      <trkpt lat="43.09511" lon="5.81288">
        <ele>6</ele>
        <time>2022-08-14T20:55:00Z</time>
      </trkpt>
      <trkpt lat="43.0948" lon="5.81283">
        <ele>6</ele>
        <time>2022-08-14T20:55:06Z</time>
      </trkpt>
      <trkpt lat="43.09437" lon="5.81267">
        <ele>5</ele>
        <time>2022-08-14T20:55:14Z</time>
      </trkpt>
      <trkpt lat="43.09265" lon="5.81185">
        <ele>5</ele>
        <time>2022-08-14T20:55:46Z</time>
      </trkpt>
      <trkpt lat="43.09253" lon="5.81173">
        <ele>5</ele>
        <time>2022-08-14T20:55:49Z</time>
      </trkpt>
      <trkpt lat="43.09248" lon="5.8116">
        <ele>5</ele>
        <time>2022-08-14T20:55:51Z</time>
      </trkpt>
      <trkpt lat="43.09239" lon="5.81154">
        <ele>5</ele>
        <time>2022-08-14T20:55:53Z</time>
      </trkpt>
      <trkpt lat="43.09231" lon="5.81155">
        <ele>6</ele>
        <time>2022-08-14T20:55:54Z</time>
      </trkpt>
      <trkpt lat="43.09224" lon="5.8116">
        <ele>6</ele>
        <time>2022-08-14T20:55:55Z</time>
      </trkpt>
      <trkpt lat="43.09209" lon="5.81162">
        <ele>7</ele>
        <time>2022-08-14T20:55:58Z</time>
      </trkpt>
      <trkpt lat="43.09114" lon="5.81114">
        <ele>10</ele>
        <time>2022-08-14T20:56:16Z</time>
      </trkpt>
      <trkpt lat="43.09047" lon="5.81085">
        <ele>9</ele>
        <time>2022-08-14T20:56:29Z</time>
      </trkpt>
      <trkpt lat="43.08903" lon="5.81033">
        <ele>10</ele>
        <time>2022-08-14T20:56:55Z</time>
      </trkpt>
      <trkpt lat="43.08818" lon="5.80994">
        <ele>10</ele>
        <time>2022-08-14T20:57:11Z</time>
      </trkpt>
      <trkpt lat="43.08723" lon="5.80958">
        <ele>8</ele>
        <time>2022-08-14T20:57:29Z</time>
      </trkpt>
      <trkpt lat="43.08701" lon="5.80945">
        <ele>7</ele>
        <time>2022-08-14T20:57:33Z</time>
      </trkpt>
      <trkpt lat="43.08666" lon="5.80916">
        <ele>6</ele>
        <time>2022-08-14T20:57:40Z</time>
      </trkpt>
      <trkpt lat="43.08582" lon="5.80821">
        <ele>9</ele>
        <time>2022-08-14T20:58:00Z</time>
      </trkpt>
      <trkpt lat="43.0855" lon="5.80792">
        <ele>10</ele>
        <time>2022-08-14T20:58:06Z</time>
      </trkpt>
      <trkpt lat="43.0852" lon="5.80772">
        <ele>12</ele>
        <time>2022-08-14T20:58:12Z</time>
      </trkpt>
      <trkpt lat="43.08506" lon="5.80766">
        <ele>13</ele>
        <time>2022-08-14T20:58:15Z</time>
      </trkpt>
      <trkpt lat="43.08501" lon="5.80762">
        <ele>13</ele>
        <time>2022-08-14T20:58:16Z</time>
      </trkpt>
      <trkpt lat="43.08498" lon="5.80763">
        <ele>13</ele>
        <time>2022-08-14T20:58:17Z</time>
      </trkpt>
      <trkpt lat="43.08497" lon="5.80767">
        <ele>13</ele>
        <time>2022-08-14T20:58:17Z</time>
      </trkpt>
      <trkpt lat="43.08463" lon="5.80753">
        <ele>12</ele>
        <time>2022-08-14T20:58:23Z</time>
      </trkpt>
      <trkpt lat="43.08219" lon="5.80686">
        <ele>6</ele>
        <time>2022-08-14T20:59:08Z</time>
      </trkpt>
      <trkpt lat="43.08143" lon="5.80675">
        <ele>4</ele>
        <time>2022-08-14T20:59:21Z</time>
      </trkpt>
      <trkpt lat="43.08059" lon="5.80641">
        <ele>4</ele>
        <time>2022-08-14T20:59:37Z</time>
      </trkpt>
      <trkpt lat="43.08024" lon="5.80633">
        <ele>4</ele>
        <time>2022-08-14T20:59:43Z</time>
      </trkpt>
      <trkpt lat="43.08012" lon="5.80629">
        <ele>4</ele>
        <time>2022-08-14T20:59:45Z</time>
      </trkpt>
      <trkpt lat="43.07999" lon="5.80618">
        <ele>4</ele>
        <time>2022-08-14T20:59:48Z</time>
      </trkpt>
      <trkpt lat="43.07977" lon="5.80593">
        <ele>4</ele>
        <time>2022-08-14T20:59:53Z</time>
      </trkpt>
      <trkpt lat="43.07949" lon="5.80558">
        <ele>4</ele>
        <time>2022-08-14T21:00:00Z</time>
      </trkpt>
      <trkpt lat="43.07937" lon="5.80543">
        <ele>4</ele>
        <time>2022-08-14T21:00:03Z</time>
      </trkpt>
      <trkpt lat="43.07918" lon="5.80509">
        <ele>3</ele>
        <time>2022-08-14T21:00:08Z</time>
      </trkpt>
      <trkpt lat="43.07871" lon="5.8044">
        <ele>3</ele>
        <time>2022-08-14T21:00:21Z</time>
      </trkpt>
      <trkpt lat="43.07851" lon="5.80411">
        <ele>3</ele>
        <time>2022-08-14T21:00:26Z</time>
      </trkpt>
      <trkpt lat="43.07844" lon="5.80404">
        <ele>3</ele>
        <time>2022-08-14T21:00:27Z</time>
      </trkpt>
      <trkpt lat="43.07829" lon="5.804">
        <ele>3</ele>
        <time>2022-08-14T21:00:30Z</time>
      </trkpt>
      <trkpt lat="43.07786" lon="5.80405">
        <ele>4</ele>
        <time>2022-08-14T21:00:38Z</time>
      </trkpt>
      <trkpt lat="43.07757" lon="5.80412">
        <ele>4</ele>
        <time>2022-08-14T21:00:43Z</time>
      </trkpt>
      <trkpt lat="43.07737" lon="5.80423">
        <ele>4</ele>
        <time>2022-08-14T21:00:47Z</time>
      </trkpt>
      <trkpt lat="43.0773" lon="5.80425">
        <ele>4</ele>
        <time>2022-08-14T21:00:48Z</time>
      </trkpt>
      <trkpt lat="43.07729" lon="5.8042">
        <ele>4</ele>
        <time>2022-08-14T21:00:49Z</time>
      </trkpt>
      <trkpt lat="43.07718" lon="5.80422">
        <ele>4</ele>
        <time>2022-08-14T21:00:51Z</time>
      </trkpt>
      <trkpt lat="43.07695" lon="5.80416">
        <ele>3</ele>
        <time>2022-08-14T21:00:55Z</time>
      </trkpt>
      <trkpt lat="43.07677" lon="5.80405">
        <ele>3</ele>
        <time>2022-08-14T21:00:58Z</time>
      </trkpt>
      <trkpt lat="43.07669" lon="5.80398">
        <ele>2</ele>
        <time>2022-08-14T21:01:00Z</time>
      </trkpt>
      <trkpt lat="43.07657" lon="5.80381">
        <ele>2</ele>
        <time>2022-08-14T21:01:03Z</time>
      </trkpt>
      <trkpt lat="43.07567" lon="5.8021">
        <ele>2</ele>
        <time>2022-08-14T21:01:31Z</time>
      </trkpt>
      <trkpt lat="43.07543" lon="5.80165">
        <ele>1</ele>
        <time>2022-08-14T21:01:38Z</time>
      </trkpt>
      <trkpt lat="43.07528" lon="5.80144">
        <ele>1</ele>
        <time>2022-08-14T21:01:42Z</time>
      </trkpt>
      <trkpt lat="43.07465" lon="5.80058">
        <ele>2</ele>
        <time>2022-08-14T21:01:57Z</time>
      </trkpt>
      <trkpt lat="43.0744" lon="5.8002">
        <ele>3</ele>
        <time>2022-08-14T21:02:04Z</time>
      </trkpt>
      <trkpt lat="43.07434" lon="5.80004">
        <ele>4</ele>
        <time>2022-08-14T21:02:06Z</time>
      </trkpt>
      <trkpt lat="43.07432" lon="5.79993">
        <ele>4</ele>
        <time>2022-08-14T21:02:08Z</time>
      </trkpt>
      <trkpt lat="43.07432" lon="5.79977">
        <ele>4</ele>
        <time>2022-08-14T21:02:10Z</time>
      </trkpt>
      <trkpt lat="43.07413" lon="5.79979">
        <ele>6</ele>
        <time>2022-08-14T21:02:13Z</time>
      </trkpt>
      <trkpt lat="43.07366" lon="5.79993">
        <ele>8</ele>
        <time>2022-08-14T21:02:22Z</time>
      </trkpt>
      <trkpt lat="43.07354" lon="5.79987">
        <ele>9</ele>
        <time>2022-08-14T21:02:24Z</time>
      </trkpt>
      <trkpt lat="43.0731" lon="5.7996">
        <ele>12</ele>
        <time>2022-08-14T21:02:33Z</time>
      </trkpt>
      <trkpt lat="43.07276" lon="5.79977">
        <ele>14</ele>
        <time>2022-08-14T21:02:39Z</time>
      </trkpt>
      <trkpt lat="43.07257" lon="5.79984">
        <ele>15</ele>
        <time>2022-08-14T21:02:43Z</time>
      </trkpt>
      <trkpt lat="43.0722" lon="5.79992">
        <ele>19</ele>
        <time>2022-08-14T21:02:49Z</time>
      </trkpt>
      <trkpt lat="43.07142" lon="5.8003">
        <ele>26</ele>
        <time>2022-08-14T21:03:04Z</time>
      </trkpt>
      <trkpt lat="43.07121" lon="5.80032">
        <ele>28</ele>
        <time>2022-08-14T21:03:08Z</time>
      </trkpt>
      <trkpt lat="43.0707" lon="5.80025">
        <ele>31</ele>
        <time>2022-08-14T21:03:17Z</time>
      </trkpt>
      <trkpt lat="43.0702" lon="5.80032">
        <ele>32</ele>
        <time>2022-08-14T21:03:26Z</time>
      </trkpt>
      <trkpt lat="43.0701" lon="5.80067">
        <ele>33</ele>
        <time>2022-08-14T21:03:31Z</time>
      </trkpt>
      <trkpt lat="43.07007" lon="5.80107">
        <ele>34</ele>
        <time>2022-08-14T21:03:36Z</time>
      </trkpt>
      <trkpt lat="43.06999" lon="5.80149">
        <ele>35</ele>
        <time>2022-08-14T21:03:42Z</time>
      </trkpt>
      <trkpt lat="43.0698" lon="5.80223">
        <ele>36</ele>
        <time>2022-08-14T21:03:52Z</time>
      </trkpt>
      <trkpt lat="43.06969" lon="5.80254">
        <ele>36</ele>
        <time>2022-08-14T21:03:56Z</time>
      </trkpt>
      <trkpt lat="43.06962" lon="5.80286">
        <ele>38</ele>
        <time>2022-08-14T21:04:01Z</time>
      </trkpt>
      <trkpt lat="43.06942" lon="5.80355">
        <ele>42</ele>
        <time>2022-08-14T21:04:10Z</time>
      </trkpt>
      <trkpt lat="43.06925" lon="5.80379">
        <ele>44</ele>
        <time>2022-08-14T21:04:15Z</time>
      </trkpt>
      <trkpt lat="43.06917" lon="5.80396">
        <ele>46</ele>
        <time>2022-08-14T21:04:17Z</time>
      </trkpt>
      <trkpt lat="43.06917" lon="5.80429">
        <ele>48</ele>
        <time>2022-08-14T21:04:22Z</time>
      </trkpt>
      <trkpt lat="43.06914" lon="5.80442">
        <ele>48</ele>
        <time>2022-08-14T21:04:23Z</time>
      </trkpt>
      <trkpt lat="43.06895" lon="5.80477">
        <ele>47</ele>
        <time>2022-08-14T21:04:29Z</time>
      </trkpt>
      <trkpt lat="43.06887" lon="5.80506">
        <ele>48</ele>
        <time>2022-08-14T21:04:33Z</time>
      </trkpt>
      <trkpt lat="43.06853" lon="5.80548">
        <ele>47</ele>
        <time>2022-08-14T21:04:41Z</time>
      </trkpt>
      <trkpt lat="43.06836" lon="5.80573">
        <ele>47</ele>
        <time>2022-08-14T21:04:46Z</time>
      </trkpt>
      <trkpt lat="43.06828" lon="5.80592">
        <ele>45</ele>
        <time>2022-08-14T21:04:49Z</time>
      </trkpt>
      <trkpt lat="43.06817" lon="5.80646">
        <ele>41</ele>
        <time>2022-08-14T21:04:56Z</time>
      </trkpt>
      <trkpt lat="43.0681" lon="5.80667">
        <ele>39</ele>
        <time>2022-08-14T21:04:59Z</time>
      </trkpt>
      <trkpt lat="43.06808" lon="5.80689">
        <ele>40</ele>
        <time>2022-08-14T21:05:02Z</time>
      </trkpt>
      <trkpt lat="43.06792" lon="5.80736">
        <ele>40</ele>
        <time>2022-08-14T21:05:08Z</time>
      </trkpt>
      <trkpt lat="43.06792" lon="5.80755">
        <ele>42</ele>
        <time>2022-08-14T21:05:11Z</time>
      </trkpt>
      <trkpt lat="43.06795" lon="5.80768">
        <ele>44</ele>
        <time>2022-08-14T21:05:13Z</time>
      </trkpt>
      <trkpt lat="43.06801" lon="5.80773">
        <ele>45</ele>
        <time>2022-08-14T21:05:14Z</time>
      </trkpt>
      <trkpt lat="43.0681" lon="5.80774">
        <ele>46</ele>
        <time>2022-08-14T21:05:16Z</time>
      </trkpt>
      <trkpt lat="43.06826" lon="5.80779">
        <ele>48</ele>
        <time>2022-08-14T21:05:18Z</time>
      </trkpt>
      <trkpt lat="43.06834" lon="5.80784">
        <ele>49</ele>
        <time>2022-08-14T21:05:20Z</time>
      </trkpt>
      <trkpt lat="43.06798" lon="5.8087">
        <ele>46</ele>
        <time>2022-08-14T21:05:33Z</time>
      </trkpt>
      <trkpt lat="43.06758" lon="5.80979">
        <ele>44</ele>
        <time>2022-08-14T21:05:49Z</time>
      </trkpt>
      <trkpt lat="43.06736" lon="5.81033">
        <ele>45</ele>
        <time>2022-08-14T21:05:57Z</time>
      </trkpt>
      <trkpt lat="43.0671" lon="5.81104">
        <ele>49</ele>
        <time>2022-08-14T21:06:07Z</time>
      </trkpt>
      <trkpt lat="43.06703" lon="5.8112">
        <ele>49</ele>
        <time>2022-08-14T21:06:10Z</time>
      </trkpt>
      <trkpt lat="43.06691" lon="5.81136">
        <ele>51</ele>
        <time>2022-08-14T21:06:13Z</time>
      </trkpt>
      <trkpt lat="43.06687" lon="5.81151">
        <ele>51</ele>
        <time>2022-08-14T21:06:15Z</time>
      </trkpt>
      <trkpt lat="43.06688" lon="5.812">
        <ele>50</ele>
        <time>2022-08-14T21:06:21Z</time>
      </trkpt>
      <trkpt lat="43.06687" lon="5.81216">
        <ele>50</ele>
        <time>2022-08-14T21:06:23Z</time>
      </trkpt>
      <trkpt lat="43.06685" lon="5.81229">
        <ele>50</ele>
        <time>2022-08-14T21:06:25Z</time>
      </trkpt>
      <trkpt lat="43.06677" lon="5.81253">
        <ele>51</ele>
        <time>2022-08-14T21:06:28Z</time>
      </trkpt>
      <trkpt lat="43.06659" lon="5.81266">
        <ele>53</ele>
        <time>2022-08-14T21:06:32Z</time>
      </trkpt>
      <trkpt lat="43.06646" lon="5.81271">
        <ele>54</ele>
        <time>2022-08-14T21:06:34Z</time>
      </trkpt>
      <trkpt lat="43.06617" lon="5.81277">
        <ele>56</ele>
        <time>2022-08-14T21:06:39Z</time>
      </trkpt>
      <trkpt lat="43.06604" lon="5.81284">
        <ele>57</ele>
        <time>2022-08-14T21:06:42Z</time>
      </trkpt>
      <trkpt lat="43.06595" lon="5.81294">
        <ele>58</ele>
        <time>2022-08-14T21:06:44Z</time>
      </trkpt>
      <trkpt lat="43.06589" lon="5.81305">
        <ele>59</ele>
        <time>2022-08-14T21:06:46Z</time>
      </trkpt>
      <trkpt lat="43.06578" lon="5.81333">
        <ele>59</ele>
        <time>2022-08-14T21:06:50Z</time>
      </trkpt>
      <trkpt lat="43.06572" lon="5.81365">
        <ele>58</ele>
        <time>2022-08-14T21:06:54Z</time>
      </trkpt>
      <trkpt lat="43.06562" lon="5.81395">
        <ele>58</ele>
        <time>2022-08-14T21:06:59Z</time>
      </trkpt>
      <trkpt lat="43.06552" lon="5.8146">
        <ele>58</ele>
        <time>2022-08-14T21:07:07Z</time>
      </trkpt>
      <trkpt lat="43.06534" lon="5.8149">
        <ele>58</ele>
        <time>2022-08-14T21:07:12Z</time>
      </trkpt>
      <trkpt lat="43.06518" lon="5.81535">
        <ele>58</ele>
        <time>2022-08-14T21:07:19Z</time>
      </trkpt>
      <trkpt lat="43.06518" lon="5.81544">
        <ele>58</ele>
        <time>2022-08-14T21:07:20Z</time>
      </trkpt>
      <trkpt lat="43.06522" lon="5.81584">
        <ele>58</ele>
        <time>2022-08-14T21:07:25Z</time>
      </trkpt>
      <trkpt lat="43.06525" lon="5.81621">
        <ele>58</ele>
        <time>2022-08-14T21:07:30Z</time>
      </trkpt>
      <trkpt lat="43.06533" lon="5.81692">
        <ele>60</ele>
        <time>2022-08-14T21:07:39Z</time>
      </trkpt>
      <trkpt lat="43.0654" lon="5.81733">
        <ele>61</ele>
        <time>2022-08-14T21:07:45Z</time>
      </trkpt>
      <trkpt lat="43.06547" lon="5.8175">
        <ele>61</ele>
        <time>2022-08-14T21:07:47Z</time>
      </trkpt>
      <trkpt lat="43.06551" lon="5.81769">
        <ele>61</ele>
        <time>2022-08-14T21:07:50Z</time>
      </trkpt>
      <trkpt lat="43.06575" lon="5.81907">
        <ele>67</ele>
        <time>2022-08-14T21:08:08Z</time>
      </trkpt>
      <trkpt lat="43.06579" lon="5.81918">
        <ele>68</ele>
        <time>2022-08-14T21:08:10Z</time>
      </trkpt>
      <trkpt lat="43.06585" lon="5.81922">
        <ele>68</ele>
        <time>2022-08-14T21:08:11Z</time>
      </trkpt>
      <trkpt lat="43.0661" lon="5.81925">
        <ele>69</ele>
        <time>2022-08-14T21:08:16Z</time>
      </trkpt>
      <trkpt lat="43.06616" lon="5.81929">
        <ele>69</ele>
        <time>2022-08-14T21:08:17Z</time>
      </trkpt>
      <trkpt lat="43.06618" lon="5.81938">
        <ele>70</ele>
        <time>2022-08-14T21:08:18Z</time>
      </trkpt>
      <trkpt lat="43.06621" lon="5.82044">
        <ele>77</ele>
        <time>2022-08-14T21:08:32Z</time>
      </trkpt>
      <trkpt lat="43.06652" lon="5.82036">
        <ele>76</ele>
        <time>2022-08-14T21:08:37Z</time>
      </trkpt>
      <trkpt lat="43.06667" lon="5.82034">
        <ele>76</ele>
        <time>2022-08-14T21:08:40Z</time>
      </trkpt>
      <trkpt lat="43.06676" lon="5.82035">
        <ele>75</ele>
        <time>2022-08-14T21:08:42Z</time>
      </trkpt>
      <trkpt lat="43.06701" lon="5.82054">
        <ele>75</ele>
        <time>2022-08-14T21:08:47Z</time>
      </trkpt>
      <trkpt lat="43.06732" lon="5.821">
        <ele>75</ele>
        <time>2022-08-14T21:08:55Z</time>
      </trkpt>
      <trkpt lat="43.06764" lon="5.8214">
        <ele>77</ele>
        <time>2022-08-14T21:09:03Z</time>
      </trkpt>
      <trkpt lat="43.06856" lon="5.8222">
        <ele>84</ele>
        <time>2022-08-14T21:09:22Z</time>
      </trkpt>
      <trkpt lat="43.06875" lon="5.82233">
        <ele>85</ele>
        <time>2022-08-14T21:09:26Z</time>
      </trkpt>
      <trkpt lat="43.06896" lon="5.82258">
        <ele>87</ele>
        <time>2022-08-14T21:09:31Z</time>
      </trkpt>
      <trkpt lat="43.06899" lon="5.82285">
        <ele>89</ele>
        <time>2022-08-14T21:09:34Z</time>
      </trkpt>
      <trkpt lat="43.06906" lon="5.82313">
        <ele>91</ele>
        <time>2022-08-14T21:09:38Z</time>
      </trkpt>
      <trkpt lat="43.06918" lon="5.82328">
        <ele>90</ele>
        <time>2022-08-14T21:09:41Z</time>
      </trkpt>
      <trkpt lat="43.06933" lon="5.82341">
        <ele>90</ele>
        <time>2022-08-14T21:09:44Z</time>
      </trkpt>
      <trkpt lat="43.0699" lon="5.82366">
        <ele>84</ele>
        <time>2022-08-14T21:09:55Z</time>
      </trkpt>
      <trkpt lat="43.06915" lon="5.82463">
        <ele>93</ele>
        <time>2022-08-14T21:10:13Z</time>
      </trkpt>
      <trkpt lat="43.06771" lon="5.82635">
        <ele>105</ele>
        <time>2022-08-14T21:10:47Z</time>
      </trkpt>
      <trkpt lat="43.06747" lon="5.82687">
        <ele>105</ele>
        <time>2022-08-14T21:10:55Z</time>
      </trkpt>
      <trkpt lat="43.06744" lon="5.82693">
        <ele>105</ele>
        <time>2022-08-14T21:10:56Z</time>
      </trkpt>
      <trkpt lat="43.06731" lon="5.82702">
        <ele>107</ele>
        <time>2022-08-14T21:10:59Z</time>
      </trkpt>
      <trkpt lat="43.06712" lon="5.82709">
        <ele>110</ele>
        <time>2022-08-14T21:11:02Z</time>
      </trkpt>
      <trkpt lat="43.06705" lon="5.82715">
        <ele>111</ele>
        <time>2022-08-14T21:11:04Z</time>
      </trkpt>
      <trkpt lat="43.06699" lon="5.82732">
        <ele>111</ele>
        <time>2022-08-14T21:11:06Z</time>
      </trkpt>
      <trkpt lat="43.06693" lon="5.82791">
        <ele>105</ele>
        <time>2022-08-14T21:11:14Z</time>
      </trkpt>
      <trkpt lat="43.06689" lon="5.82802">
        <ele>105</ele>
        <time>2022-08-14T21:11:15Z</time>
      </trkpt>
      <trkpt lat="43.06685" lon="5.82806">
        <ele>105</ele>
        <time>2022-08-14T21:11:16Z</time>
      </trkpt>
      <trkpt lat="43.06671" lon="5.82807">
        <ele>106</ele>
        <time>2022-08-14T21:11:19Z</time>
      </trkpt>
      <trkpt lat="43.06599" lon="5.8278">
        <ele>118</ele>
        <time>2022-08-14T21:11:32Z</time>
      </trkpt>
      <trkpt lat="43.0659" lon="5.82779">
        <ele>119</ele>
        <time>2022-08-14T21:11:34Z</time>
      </trkpt>
      <trkpt lat="43.06584" lon="5.82783">
        <ele>119</ele>
        <time>2022-08-14T21:11:35Z</time>
      </trkpt>
      <trkpt lat="43.06561" lon="5.82813">
        <ele>116</ele>
        <time>2022-08-14T21:11:41Z</time>
      </trkpt>
      <trkpt lat="43.06555" lon="5.82819">
        <ele>116</ele>
        <time>2022-08-14T21:11:42Z</time>
      </trkpt>
      <trkpt lat="43.0654" lon="5.82827">
        <ele>116</ele>
        <time>2022-08-14T21:11:45Z</time>
      </trkpt>
      <trkpt lat="43.06526" lon="5.82827">
        <ele>117</ele>
        <time>2022-08-14T21:11:47Z</time>
      </trkpt>
      <trkpt lat="43.06515" lon="5.82823">
        <ele>118</ele>
        <time>2022-08-14T21:11:49Z</time>
      </trkpt>
      <trkpt lat="43.06488" lon="5.828">
        <ele>123</ele>
        <time>2022-08-14T21:11:55Z</time>
      </trkpt>
      <trkpt lat="43.06481" lon="5.82796">
        <ele>124</ele>
        <time>2022-08-14T21:11:56Z</time>
      </trkpt>
      <trkpt lat="43.06474" lon="5.82799">
        <ele>124</ele>
        <time>2022-08-14T21:11:58Z</time>
      </trkpt>
      <trkpt lat="43.0646" lon="5.82812">
        <ele>123</ele>
        <time>2022-08-14T21:12:01Z</time>
      </trkpt>
      <trkpt lat="43.06452" lon="5.82817">
        <ele>123</ele>
        <time>2022-08-14T21:12:02Z</time>
      </trkpt>
      <trkpt lat="43.0642" lon="5.82816">
        <ele>124</ele>
        <time>2022-08-14T21:12:08Z</time>
      </trkpt>
      <trkpt lat="43.06415" lon="5.82817">
        <ele>125</ele>
        <time>2022-08-14T21:12:09Z</time>
      </trkpt>
      <trkpt lat="43.06409" lon="5.82826">
        <ele>125</ele>
        <time>2022-08-14T21:12:10Z</time>
      </trkpt>
      <trkpt lat="43.064" lon="5.8292">
        <ele>126</ele>
        <time>2022-08-14T21:12:23Z</time>
      </trkpt>
      <trkpt lat="43.06413" lon="5.82959">
        <ele>121</ele>
        <time>2022-08-14T21:12:28Z</time>
      </trkpt>
      <trkpt lat="43.06415" lon="5.82974">
        <ele>120</ele>
        <time>2022-08-14T21:12:30Z</time>
      </trkpt>
      <trkpt lat="43.06414" lon="5.82982">
        <ele>120</ele>
        <time>2022-08-14T21:12:31Z</time>
      </trkpt>
      <trkpt lat="43.06408" lon="5.82994">
        <ele>121</ele>
        <time>2022-08-14T21:12:33Z</time>
      </trkpt>
      <trkpt lat="43.06374" lon="5.83038">
        <ele>125</ele>
        <time>2022-08-14T21:12:42Z</time>
      </trkpt>
      <trkpt lat="43.06364" lon="5.83049">
        <ele>125</ele>
        <time>2022-08-14T21:12:44Z</time>
      </trkpt>
      <trkpt lat="43.06347" lon="5.83062">
        <ele>126</ele>
        <time>2022-08-14T21:12:47Z</time>
      </trkpt>
      <trkpt lat="43.06339" lon="5.83066">
        <ele>127</ele>
        <time>2022-08-14T21:12:49Z</time>
      </trkpt>
      <trkpt lat="43.06325" lon="5.83067">
        <ele>128</ele>
        <time>2022-08-14T21:12:51Z</time>
      </trkpt>
      <trkpt lat="43.06307" lon="5.83063">
        <ele>130</ele>
        <time>2022-08-14T21:12:55Z</time>
      </trkpt>
      <trkpt lat="43.06284" lon="5.8305">
        <ele>133</ele>
        <time>2022-08-14T21:12:59Z</time>
      </trkpt>
      <trkpt lat="43.06244" lon="5.83032">
        <ele>138</ele>
        <time>2022-08-14T21:13:06Z</time>
      </trkpt>
      <trkpt lat="43.06229" lon="5.83032">
        <ele>139</ele>
        <time>2022-08-14T21:13:09Z</time>
      </trkpt>
      <trkpt lat="43.06219" lon="5.83039">
        <ele>138</ele>
        <time>2022-08-14T21:13:11Z</time>
      </trkpt>
      <trkpt lat="43.0621" lon="5.83064">
        <ele>134</ele>
        <time>2022-08-14T21:13:15Z</time>
      </trkpt>
      <trkpt lat="43.06206" lon="5.83086">
        <ele>131</ele>
        <time>2022-08-14T21:13:18Z</time>
      </trkpt>
      <trkpt lat="43.06199" lon="5.83097">
        <ele>131</ele>
        <time>2022-08-14T21:13:20Z</time>
      </trkpt>
      <trkpt lat="43.06184" lon="5.83109">
        <ele>131</ele>
        <time>2022-08-14T21:13:23Z</time>
      </trkpt>
      <trkpt lat="43.06137" lon="5.8312">
        <ele>134</ele>
        <time>2022-08-14T21:13:31Z</time>
      </trkpt>
      <trkpt lat="43.06126" lon="5.83126">
        <ele>134</ele>
        <time>2022-08-14T21:13:33Z</time>
      </trkpt>
      <trkpt lat="43.06111" lon="5.83139">
        <ele>135</ele>
        <time>2022-08-14T21:13:36Z</time>
      </trkpt>
      <trkpt lat="43.06098" lon="5.83168">
        <ele>135</ele>
        <time>2022-08-14T21:13:41Z</time>
      </trkpt>
      <trkpt lat="43.0606" lon="5.83265">
        <ele>135</ele>
        <time>2022-08-14T21:13:55Z</time>
      </trkpt>
      <trkpt lat="43.06051" lon="5.83279">
        <ele>135</ele>
        <time>2022-08-14T21:13:58Z</time>
      </trkpt>
      <trkpt lat="43.06041" lon="5.83289">
        <ele>135</ele>
        <time>2022-08-14T21:14:00Z</time>
      </trkpt>
      <trkpt lat="43.0603" lon="5.83293">
        <ele>136</ele>
        <time>2022-08-14T21:14:02Z</time>
      </trkpt>
      <trkpt lat="43.06019" lon="5.83289">
        <ele>137</ele>
        <time>2022-08-14T21:14:04Z</time>
      </trkpt>
      <trkpt lat="43.06007" lon="5.8328">
        <ele>139</ele>
        <time>2022-08-14T21:14:06Z</time>
      </trkpt>
      <trkpt lat="43.05991" lon="5.83277">
        <ele>142</ele>
        <time>2022-08-14T21:14:09Z</time>
      </trkpt>
      <trkpt lat="43.05979" lon="5.8329">
        <ele>144</ele>
        <time>2022-08-14T21:14:12Z</time>
      </trkpt>
      <trkpt lat="43.05967" lon="5.83327">
        <ele>144</ele>
        <time>2022-08-14T21:14:17Z</time>
      </trkpt>
      <trkpt lat="43.0596" lon="5.83377">
        <ele>142</ele>
        <time>2022-08-14T21:14:24Z</time>
      </trkpt>
      <trkpt lat="43.05929" lon="5.83429">
        <ele>142</ele>
        <time>2022-08-14T21:14:32Z</time>
      </trkpt>
      <trkpt lat="43.05884" lon="5.83498">
        <ele>137</ele>
        <time>2022-08-14T21:14:44Z</time>
      </trkpt>
      <trkpt lat="43.05871" lon="5.8351">
        <ele>138</ele>
        <time>2022-08-14T21:14:47Z</time>
      </trkpt>
      <trkpt lat="43.05846" lon="5.83522">
        <ele>139</ele>
        <time>2022-08-14T21:14:52Z</time>
      </trkpt>
      <trkpt lat="43.0583" lon="5.83526">
        <ele>141</ele>
        <time>2022-08-14T21:14:55Z</time>
      </trkpt>
      <trkpt lat="43.05813" lon="5.83527">
        <ele>142</ele>
        <time>2022-08-14T21:14:58Z</time>
      </trkpt>
      <trkpt lat="43.05795" lon="5.83521">
        <ele>145</ele>
        <time>2022-08-14T21:15:01Z</time>
      </trkpt>
      <trkpt lat="43.05772" lon="5.8352">
        <ele>148</ele>
        <time>2022-08-14T21:15:05Z</time>
      </trkpt>
      <trkpt lat="43.05757" lon="5.8353">
        <ele>149</ele>
        <time>2022-08-14T21:15:08Z</time>
      </trkpt>
      <trkpt lat="43.05752" lon="5.83541">
        <ele>149</ele>
        <time>2022-08-14T21:15:10Z</time>
      </trkpt>
      <trkpt lat="43.05751" lon="5.83578">
        <ele>146</ele>
        <time>2022-08-14T21:15:15Z</time>
      </trkpt>
      <trkpt lat="43.05745" lon="5.83609">
        <ele>145</ele>
        <time>2022-08-14T21:15:19Z</time>
      </trkpt>
      <trkpt lat="43.0574" lon="5.83622">
        <ele>145</ele>
        <time>2022-08-14T21:15:21Z</time>
      </trkpt>
      <trkpt lat="43.05729" lon="5.83636">
        <ele>145</ele>
        <time>2022-08-14T21:15:24Z</time>
      </trkpt>
      <trkpt lat="43.05711" lon="5.83647">
        <ele>146</ele>
        <time>2022-08-14T21:15:27Z</time>
      </trkpt>
      <trkpt lat="43.057" lon="5.83643">
        <ele>147</ele>
        <time>2022-08-14T21:15:29Z</time>
      </trkpt>
      <trkpt lat="43.0569" lon="5.83634">
        <ele>149</ele>
        <time>2022-08-14T21:15:31Z</time>
      </trkpt>
      <trkpt lat="43.0568" lon="5.83617">
        <ele>151</ele>
        <time>2022-08-14T21:15:34Z</time>
      </trkpt>
      <trkpt lat="43.0567" lon="5.83591">
        <ele>154</ele>
        <time>2022-08-14T21:15:38Z</time>
      </trkpt>
      <trkpt lat="43.05665" lon="5.83585">
        <ele>155</ele>
        <time>2022-08-14T21:15:39Z</time>
      </trkpt>
      <trkpt lat="43.05657" lon="5.83584">
        <ele>157</ele>
        <time>2022-08-14T21:15:40Z</time>
      </trkpt>
      <trkpt lat="43.05649" lon="5.8359">
        <ele>158</ele>
        <time>2022-08-14T21:15:42Z</time>
      </trkpt>
      <trkpt lat="43.05644" lon="5.83604">
        <ele>157</ele>
        <time>2022-08-14T21:15:44Z</time>
      </trkpt>
      <trkpt lat="43.05639" lon="5.83629">
        <ele>157</ele>
        <time>2022-08-14T21:15:47Z</time>
      </trkpt>
      <trkpt lat="43.05609" lon="5.83679">
        <ele>160</ele>
        <time>2022-08-14T21:15:56Z</time>
      </trkpt>
      <trkpt lat="43.05608" lon="5.83693">
        <ele>159</ele>
        <time>2022-08-14T21:15:58Z</time>
      </trkpt>
      <trkpt lat="43.05611" lon="5.83721">
        <ele>158</ele>
        <time>2022-08-14T21:16:01Z</time>
      </trkpt>
      <trkpt lat="43.05606" lon="5.83783">
        <ele>160</ele>
        <time>2022-08-14T21:16:09Z</time>
      </trkpt>
      <trkpt lat="43.05613" lon="5.83839">
        <ele>161</ele>
        <time>2022-08-14T21:16:17Z</time>
      </trkpt>
      <trkpt lat="43.05623" lon="5.83883">
        <ele>162</ele>
        <time>2022-08-14T21:16:23Z</time>
      </trkpt>
      <trkpt lat="43.05619" lon="5.83931">
        <ele>165</ele>
        <time>2022-08-14T21:16:29Z</time>
      </trkpt>
      <trkpt lat="43.05612" lon="5.8398">
        <ele>170</ele>
        <time>2022-08-14T21:16:36Z</time>
      </trkpt>
      <trkpt lat="43.05613" lon="5.84">
        <ele>171</ele>
        <time>2022-08-14T21:16:38Z</time>
      </trkpt>
      <trkpt lat="43.05618" lon="5.84013">
        <ele>172</ele>
        <time>2022-08-14T21:16:40Z</time>
      </trkpt>
      <trkpt lat="43.05628" lon="5.84018">
        <ele>171</ele>
        <time>2022-08-14T21:16:42Z</time>
      </trkpt>
      <trkpt lat="43.0564" lon="5.84005">
        <ele>169</ele>
        <time>2022-08-14T21:16:45Z</time>
      </trkpt>
      <trkpt lat="43.05654" lon="5.83994">
        <ele>166</ele>
        <time>2022-08-14T21:16:48Z</time>
      </trkpt>
      <trkpt lat="43.05676" lon="5.83995">
        <ele>165</ele>
        <time>2022-08-14T21:16:52Z</time>
      </trkpt>
      <trkpt lat="43.05714" lon="5.84025">
        <ele>172</ele>
        <time>2022-08-14T21:16:59Z</time>
      </trkpt>
      <trkpt lat="43.0573" lon="5.84034">
        <ele>173</ele>
        <time>2022-08-14T21:17:02Z</time>
      </trkpt>
      <trkpt lat="43.05738" lon="5.8403">
        <ele>173</ele>
        <time>2022-08-14T21:17:04Z</time>
      </trkpt>
      <trkpt lat="43.05743" lon="5.84019">
        <ele>173</ele>
        <time>2022-08-14T21:17:06Z</time>
      </trkpt>
      <trkpt lat="43.05743" lon="5.83921">
        <ele>170</ele>
        <time>2022-08-14T21:17:18Z</time>
      </trkpt>
      <trkpt lat="43.05747" lon="5.83896">
        <ele>167</ele>
        <time>2022-08-14T21:17:22Z</time>
      </trkpt>
      <trkpt lat="43.05757" lon="5.83885">
        <ele>166</ele>
        <time>2022-08-14T21:17:24Z</time>
      </trkpt>
      <trkpt lat="43.0578" lon="5.83881">
        <ele>166</ele>
        <time>2022-08-14T21:17:28Z</time>
      </trkpt>
      <trkpt lat="43.05802" lon="5.83889">
        <ele>168</ele>
        <time>2022-08-14T21:17:32Z</time>
      </trkpt>
      <trkpt lat="43.05831" lon="5.83907">
        <ele>173</ele>
        <time>2022-08-14T21:17:38Z</time>
      </trkpt>
      <trkpt lat="43.05853" lon="5.83928">
        <ele>177</ele>
        <time>2022-08-14T21:17:43Z</time>
      </trkpt>
      <trkpt lat="43.05865" lon="5.83932">
        <ele>177</ele>
        <time>2022-08-14T21:17:45Z</time>
      </trkpt>
      <trkpt lat="43.05907" lon="5.83914">
        <ele>172</ele>
        <time>2022-08-14T21:17:53Z</time>
      </trkpt>
      <trkpt lat="43.05917" lon="5.83913">
        <ele>171</ele>
        <time>2022-08-14T21:17:54Z</time>
      </trkpt>
      <trkpt lat="43.05927" lon="5.83922">
        <ele>171</ele>
        <time>2022-08-14T21:17:57Z</time>
      </trkpt>
      <trkpt lat="43.05937" lon="5.83946">
        <ele>172</ele>
        <time>2022-08-14T21:18:00Z</time>
      </trkpt>
      <trkpt lat="43.05941" lon="5.83965">
        <ele>173</ele>
        <time>2022-08-14T21:18:03Z</time>
      </trkpt>
      <trkpt lat="43.05939" lon="5.83984">
        <ele>176</ele>
        <time>2022-08-14T21:18:05Z</time>
      </trkpt>
      <trkpt lat="43.05929" lon="5.84017">
        <ele>183</ele>
        <time>2022-08-14T21:18:10Z</time>
      </trkpt>
      <trkpt lat="43.05926" lon="5.84048">
        <ele>187</ele>
        <time>2022-08-14T21:18:14Z</time>
      </trkpt>
      <trkpt lat="43.05923" lon="5.84096">
        <ele>193</ele>
        <time>2022-08-14T21:18:20Z</time>
      </trkpt>
      <trkpt lat="43.05922" lon="5.84127">
        <ele>196</ele>
        <time>2022-08-14T21:18:24Z</time>
      </trkpt>
      <trkpt lat="43.05931" lon="5.84145">
        <ele>196</ele>
        <time>2022-08-14T21:18:27Z</time>
      </trkpt>
      <trkpt lat="43.05941" lon="5.84151">
        <ele>194</ele>
        <time>2022-08-14T21:18:29Z</time>
      </trkpt>
      <trkpt lat="43.05953" lon="5.84153">
        <ele>191</ele>
        <time>2022-08-14T21:18:31Z</time>
      </trkpt>
      <trkpt lat="43.05966" lon="5.84164">
        <ele>189</ele>
        <time>2022-08-14T21:18:34Z</time>
      </trkpt>
      <trkpt lat="43.0597" lon="5.84177">
        <ele>189</ele>
        <time>2022-08-14T21:18:36Z</time>
      </trkpt>
      <trkpt lat="43.05969" lon="5.84187">
        <ele>191</ele>
        <time>2022-08-14T21:18:37Z</time>
      </trkpt>
      <trkpt lat="43.05959" lon="5.84212">
        <ele>196</ele>
        <time>2022-08-14T21:18:41Z</time>
      </trkpt>
      <trkpt lat="43.05954" lon="5.84239">
        <ele>200</ele>
        <time>2022-08-14T21:18:44Z</time>
      </trkpt>
      <trkpt lat="43.05954" lon="5.84259">
        <ele>202</ele>
        <time>2022-08-14T21:18:47Z</time>
      </trkpt>
      <trkpt lat="43.05967" lon="5.84314">
        <ele>203</ele>
        <time>2022-08-14T21:18:54Z</time>
      </trkpt>
      <trkpt lat="43.05962" lon="5.84348">
        <ele>209</ele>
        <time>2022-08-14T21:18:59Z</time>
      </trkpt>
      <trkpt lat="43.05961" lon="5.84376">
        <ele>215</ele>
        <time>2022-08-14T21:19:03Z</time>
      </trkpt>
      <trkpt lat="43.05968" lon="5.84396">
        <ele>217</ele>
        <time>2022-08-14T21:19:05Z</time>
      </trkpt>
      <trkpt lat="43.05983" lon="5.84401">
        <ele>215</ele>
        <time>2022-08-14T21:19:08Z</time>
      </trkpt>
      <trkpt lat="43.06033" lon="5.84389">
        <ele>203</ele>
        <time>2022-08-14T21:19:17Z</time>
      </trkpt>
      <trkpt lat="43.0604" lon="5.84391">
        <ele>202</ele>
        <time>2022-08-14T21:19:19Z</time>
      </trkpt>
      <trkpt lat="43.06046" lon="5.84398">
        <ele>203</ele>
        <time>2022-08-14T21:19:20Z</time>
      </trkpt>
      <trkpt lat="43.0605" lon="5.84405">
        <ele>204</ele>
        <time>2022-08-14T21:19:21Z</time>
      </trkpt>
      <trkpt lat="43.06054" lon="5.84441">
        <ele>210</ele>
        <time>2022-08-14T21:19:26Z</time>
      </trkpt>
      <trkpt lat="43.06063" lon="5.84467">
        <ele>213</ele>
        <time>2022-08-14T21:19:30Z</time>
      </trkpt>
      <trkpt lat="43.06077" lon="5.84484">
        <ele>213</ele>
        <time>2022-08-14T21:19:33Z</time>
      </trkpt>
      <trkpt lat="43.06085" lon="5.84506">
        <ele>214</ele>
        <time>2022-08-14T21:19:36Z</time>
      </trkpt>
      <trkpt lat="43.06105" lon="5.84535">
        <ele>214</ele>
        <time>2022-08-14T21:19:41Z</time>
      </trkpt>
      <trkpt lat="43.06123" lon="5.84554">
        <ele>214</ele>
        <time>2022-08-14T21:19:45Z</time>
      </trkpt>
      <trkpt lat="43.06144" lon="5.84569">
        <ele>212</ele>
        <time>2022-08-14T21:19:50Z</time>
      </trkpt>
      <trkpt lat="43.0616" lon="5.84576">
        <ele>211</ele>
        <time>2022-08-14T21:19:53Z</time>
      </trkpt>
      <trkpt lat="43.06178" lon="5.84578">
        <ele>210</ele>
        <time>2022-08-14T21:19:56Z</time>
      </trkpt>
      <trkpt lat="43.06203" lon="5.84578">
        <ele>208</ele>
        <time>2022-08-14T21:20:00Z</time>
      </trkpt>
      <trkpt lat="43.06251" lon="5.84574">
        <ele>204</ele>
        <time>2022-08-14T21:20:09Z</time>
      </trkpt>
      <trkpt lat="43.06299" lon="5.84583">
        <ele>208</ele>
        <time>2022-08-14T21:20:17Z</time>
      </trkpt>
      <trkpt lat="43.06308" lon="5.84587">
        <ele>208</ele>
        <time>2022-08-14T21:20:19Z</time>
      </trkpt>
      <trkpt lat="43.06316" lon="5.84593">
        <ele>208</ele>
        <time>2022-08-14T21:20:21Z</time>
      </trkpt>
      <trkpt lat="43.06323" lon="5.84607">
        <ele>206</ele>
        <time>2022-08-14T21:20:23Z</time>
      </trkpt>
      <trkpt lat="43.06325" lon="5.84617">
        <ele>205</ele>
        <time>2022-08-14T21:20:24Z</time>
      </trkpt>
      <trkpt lat="43.06324" lon="5.84625">
        <ele>204</ele>
        <time>2022-08-14T21:20:25Z</time>
      </trkpt>
      <trkpt lat="43.06319" lon="5.84636">
        <ele>203</ele>
        <time>2022-08-14T21:20:27Z</time>
      </trkpt>
      <trkpt lat="43.06313" lon="5.84643">
        <ele>201</ele>
        <time>2022-08-14T21:20:28Z</time>
      </trkpt>
      <trkpt lat="43.06306" lon="5.84646">
        <ele>201</ele>
        <time>2022-08-14T21:20:30Z</time>
      </trkpt>
      <trkpt lat="43.063" lon="5.84645">
        <ele>200</ele>
        <time>2022-08-14T21:20:31Z</time>
      </trkpt>
      <trkpt lat="43.06292" lon="5.84642">
        <ele>200</ele>
        <time>2022-08-14T21:20:32Z</time>
      </trkpt>
      <trkpt lat="43.06271" lon="5.84615">
        <ele>202</ele>
        <time>2022-08-14T21:20:37Z</time>
      </trkpt>
      <trkpt lat="43.06261" lon="5.84606">
        <ele>202</ele>
        <time>2022-08-14T21:20:39Z</time>
      </trkpt>
      <trkpt lat="43.06247" lon="5.84602">
        <ele>202</ele>
        <time>2022-08-14T21:20:42Z</time>
      </trkpt>
      <trkpt lat="43.06232" lon="5.84602">
        <ele>203</ele>
        <time>2022-08-14T21:20:45Z</time>
      </trkpt>
      <trkpt lat="43.06207" lon="5.8461">
        <ele>203</ele>
        <time>2022-08-14T21:20:49Z</time>
      </trkpt>
      <trkpt lat="43.06191" lon="5.84619">
        <ele>203</ele>
        <time>2022-08-14T21:20:52Z</time>
      </trkpt>
      <trkpt lat="43.06106" lon="5.84689">
        <ele>197</ele>
        <time>2022-08-14T21:21:10Z</time>
      </trkpt>
      <trkpt lat="43.06093" lon="5.84699">
        <ele>196</ele>
        <time>2022-08-14T21:21:13Z</time>
      </trkpt>
      <trkpt lat="43.06052" lon="5.84711">
        <ele>196</ele>
        <time>2022-08-14T21:21:20Z</time>
      </trkpt>
      <trkpt lat="43.06044" lon="5.84715">
        <ele>195</ele>
        <time>2022-08-14T21:21:22Z</time>
      </trkpt>
      <trkpt lat="43.06037" lon="5.84719">
        <ele>195</ele>
        <time>2022-08-14T21:21:23Z</time>
      </trkpt>
      <trkpt lat="43.0601" lon="5.84746">
        <ele>188</ele>
        <time>2022-08-14T21:21:29Z</time>
      </trkpt>
      <trkpt lat="43.05997" lon="5.84754">
        <ele>187</ele>
        <time>2022-08-14T21:21:31Z</time>
      </trkpt>
      <trkpt lat="43.0599" lon="5.84753">
        <ele>188</ele>
        <time>2022-08-14T21:21:33Z</time>
      </trkpt>
      <trkpt lat="43.05982" lon="5.84749">
        <ele>189</ele>
        <time>2022-08-14T21:21:34Z</time>
      </trkpt>
      <trkpt lat="43.05969" lon="5.84738">
        <ele>193</ele>
        <time>2022-08-14T21:21:37Z</time>
      </trkpt>
      <trkpt lat="43.05955" lon="5.84733">
        <ele>195</ele>
        <time>2022-08-14T21:21:40Z</time>
      </trkpt>
      <trkpt lat="43.05947" lon="5.84734">
        <ele>195</ele>
        <time>2022-08-14T21:21:41Z</time>
      </trkpt>
      <trkpt lat="43.05941" lon="5.84739">
        <ele>194</ele>
        <time>2022-08-14T21:21:42Z</time>
      </trkpt>
      <trkpt lat="43.05936" lon="5.84745">
        <ele>193</ele>
        <time>2022-08-14T21:21:43Z</time>
      </trkpt>
      <trkpt lat="43.05933" lon="5.84753">
        <ele>192</ele>
        <time>2022-08-14T21:21:45Z</time>
      </trkpt>
      <trkpt lat="43.05928" lon="5.84819">
        <ele>183</ele>
        <time>2022-08-14T21:21:53Z</time>
      </trkpt>
      <trkpt lat="43.05905" lon="5.84907">
        <ele>180</ele>
        <time>2022-08-14T21:22:05Z</time>
      </trkpt>
      <trkpt lat="43.05902" lon="5.84933">
        <ele>181</ele>
        <time>2022-08-14T21:22:09Z</time>
      </trkpt>
      <trkpt lat="43.05906" lon="5.84949">
        <ele>181</ele>
        <time>2022-08-14T21:22:11Z</time>
      </trkpt>
      <trkpt lat="43.05916" lon="5.84962">
        <ele>181</ele>
        <time>2022-08-14T21:22:13Z</time>
      </trkpt>
      <trkpt lat="43.05922" lon="5.84965">
        <ele>181</ele>
        <time>2022-08-14T21:22:15Z</time>
      </trkpt>
      <trkpt lat="43.05934" lon="5.84964">
        <ele>180</ele>
        <time>2022-08-14T21:22:17Z</time>
      </trkpt>
      <trkpt lat="43.05952" lon="5.84951">
        <ele>177</ele>
        <time>2022-08-14T21:22:20Z</time>
      </trkpt>
      <trkpt lat="43.0597" lon="5.84934">
        <ele>172</ele>
        <time>2022-08-14T21:22:24Z</time>
      </trkpt>
      <trkpt lat="43.05978" lon="5.8493">
        <ele>171</ele>
        <time>2022-08-14T21:22:26Z</time>
      </trkpt>
      <trkpt lat="43.05995" lon="5.84928">
        <ele>169</ele>
        <time>2022-08-14T21:22:29Z</time>
      </trkpt>
      <trkpt lat="43.06004" lon="5.84931">
        <ele>168</ele>
        <time>2022-08-14T21:22:30Z</time>
      </trkpt>
      <trkpt lat="43.06018" lon="5.84937">
        <ele>167</ele>
        <time>2022-08-14T21:22:33Z</time>
      </trkpt>
      <trkpt lat="43.06028" lon="5.84945">
        <ele>166</ele>
        <time>2022-08-14T21:22:35Z</time>
      </trkpt>
      <trkpt lat="43.06036" lon="5.84955">
        <ele>166</ele>
        <time>2022-08-14T21:22:37Z</time>
      </trkpt>
      <trkpt lat="43.06054" lon="5.84989">
        <ele>167</ele>
        <time>2022-08-14T21:22:42Z</time>
      </trkpt>
      <trkpt lat="43.06078" lon="5.85017">
        <ele>165</ele>
        <time>2022-08-14T21:22:48Z</time>
      </trkpt>
      <trkpt lat="43.06102" lon="5.85053">
        <ele>163</ele>
        <time>2022-08-14T21:22:54Z</time>
      </trkpt>
      <trkpt lat="43.06114" lon="5.8508">
        <ele>163</ele>
        <time>2022-08-14T21:22:59Z</time>
      </trkpt>
      <trkpt lat="43.0612" lon="5.85106">
        <ele>162</ele>
        <time>2022-08-14T21:23:02Z</time>
      </trkpt>
      <trkpt lat="43.06124" lon="5.85134">
        <ele>162</ele>
        <time>2022-08-14T21:23:06Z</time>
      </trkpt>
      <trkpt lat="43.06126" lon="5.85165">
        <ele>162</ele>
        <time>2022-08-14T21:23:10Z</time>
      </trkpt>
      <trkpt lat="43.06125" lon="5.85182">
        <ele>161</ele>
        <time>2022-08-14T21:23:12Z</time>
      </trkpt>
      <trkpt lat="43.06119" lon="5.85229">
        <ele>159</ele>
        <time>2022-08-14T21:23:18Z</time>
      </trkpt>
      <trkpt lat="43.0612" lon="5.85283">
        <ele>153</ele>
        <time>2022-08-14T21:23:25Z</time>
      </trkpt>
      <trkpt lat="43.06116" lon="5.853">
        <ele>151</ele>
        <time>2022-08-14T21:23:28Z</time>
      </trkpt>
      <trkpt lat="43.06107" lon="5.85316">
        <ele>151</ele>
        <time>2022-08-14T21:23:30Z</time>
      </trkpt>
      <trkpt lat="43.06088" lon="5.8534">
        <ele>151</ele>
        <time>2022-08-14T21:23:35Z</time>
      </trkpt>
      <trkpt lat="43.06073" lon="5.85369">
        <ele>149</ele>
        <time>2022-08-14T21:23:39Z</time>
      </trkpt>
      <trkpt lat="43.06047" lon="5.85436">
        <ele>143</ele>
        <time>2022-08-14T21:23:49Z</time>
      </trkpt>
      <trkpt lat="43.06031" lon="5.85474">
        <ele>140</ele>
        <time>2022-08-14T21:23:55Z</time>
      </trkpt>
      <trkpt lat="43.06026" lon="5.85483">
        <ele>139</ele>
        <time>2022-08-14T21:23:56Z</time>
      </trkpt>
      <trkpt lat="43.06013" lon="5.855">
        <ele>138</ele>
        <time>2022-08-14T21:24:00Z</time>
      </trkpt>
      <trkpt lat="43.05977" lon="5.85523">
        <ele>140</ele>
        <time>2022-08-14T21:24:07Z</time>
      </trkpt>
      <trkpt lat="43.05971" lon="5.85529">
        <ele>141</ele>
        <time>2022-08-14T21:24:08Z</time>
      </trkpt>
      <trkpt lat="43.05953" lon="5.85558">
        <ele>142</ele>
        <time>2022-08-14T21:24:13Z</time>
      </trkpt>
      <trkpt lat="43.05881" lon="5.8573">
        <ele>145</ele>
        <time>2022-08-14T21:24:39Z</time>
      </trkpt>
      <trkpt lat="43.05875" lon="5.85751">
        <ele>143</ele>
        <time>2022-08-14T21:24:42Z</time>
      </trkpt>
      <trkpt lat="43.05873" lon="5.85774">
        <ele>143</ele>
        <time>2022-08-14T21:24:45Z</time>
      </trkpt>
      <trkpt lat="43.05885" lon="5.85855">
        <ele>140</ele>
        <time>2022-08-14T21:24:55Z</time>
      </trkpt>
      <trkpt lat="43.05887" lon="5.85905">
        <ele>139</ele>
        <time>2022-08-14T21:25:02Z</time>
      </trkpt>
      <trkpt lat="43.05887" lon="5.85957">
        <ele>140</ele>
        <time>2022-08-14T21:25:09Z</time>
      </trkpt>
      <trkpt lat="43.05881" lon="5.86079">
        <ele>135</ele>
        <time>2022-08-14T21:25:25Z</time>
      </trkpt>
      <trkpt lat="43.05883" lon="5.86104">
        <ele>130</ele>
        <time>2022-08-14T21:25:28Z</time>
      </trkpt>
      <trkpt lat="43.05886" lon="5.86116">
        <ele>128</ele>
        <time>2022-08-14T21:25:30Z</time>
      </trkpt>
      <trkpt lat="43.05891" lon="5.86126">
        <ele>126</ele>
        <time>2022-08-14T21:25:31Z</time>
      </trkpt>
      <trkpt lat="43.05901" lon="5.86139">
        <ele>125</ele>
        <time>2022-08-14T21:25:34Z</time>
      </trkpt>
      <trkpt lat="43.05922" lon="5.86147">
        <ele>128</ele>
        <time>2022-08-14T21:25:37Z</time>
      </trkpt>
      <trkpt lat="43.05972" lon="5.86162">
        <ele>129</ele>
        <time>2022-08-14T21:25:47Z</time>
      </trkpt>
      <trkpt lat="43.06033" lon="5.86199">
        <ele>121</ele>
        <time>2022-08-14T21:25:58Z</time>
      </trkpt>
      <trkpt lat="43.06061" lon="5.86224">
        <ele>115</ele>
        <time>2022-08-14T21:26:04Z</time>
      </trkpt>
      <trkpt lat="43.06086" lon="5.8625">
        <ele>112</ele>
        <time>2022-08-14T21:26:10Z</time>
      </trkpt>
      <trkpt lat="43.06116" lon="5.86307">
        <ele>116</ele>
        <time>2022-08-14T21:26:19Z</time>
      </trkpt>
      <trkpt lat="43.06144" lon="5.86443">
        <ele>107</ele>
        <time>2022-08-14T21:26:37Z</time>
      </trkpt>
      <trkpt lat="43.06169" lon="5.86482">
        <ele>106</ele>
        <time>2022-08-14T21:26:44Z</time>
      </trkpt>
      <trkpt lat="43.06304" lon="5.86518">
        <ele>113</ele>
        <time>2022-08-14T21:27:09Z</time>
      </trkpt>
      <trkpt lat="43.06368" lon="5.86525">
        <ele>113</ele>
        <time>2022-08-14T21:27:20Z</time>
      </trkpt>
      <trkpt lat="43.06422" lon="5.8655">
        <ele>108</ele>
        <time>2022-08-14T21:27:30Z</time>
      </trkpt>
      <trkpt lat="43.06539" lon="5.86624">
        <ele>101</ele>
        <time>2022-08-14T21:27:53Z</time>
      </trkpt>
      <trkpt lat="43.06561" lon="5.86643">
        <ele>99</ele>
        <time>2022-08-14T21:27:58Z</time>
      </trkpt>
      <trkpt lat="43.06615" lon="5.86683">
        <ele>92</ele>
        <time>2022-08-14T21:28:09Z</time>
      </trkpt>
      <trkpt lat="43.06669" lon="5.86731">
        <ele>85</ele>
        <time>2022-08-14T21:28:20Z</time>
      </trkpt>
      <trkpt lat="43.06696" lon="5.86773">
        <ele>86</ele>
        <time>2022-08-14T21:28:27Z</time>
      </trkpt>
      <trkpt lat="43.06702" lon="5.86778">
        <ele>86</ele>
        <time>2022-08-14T21:28:29Z</time>
      </trkpt>
      <trkpt lat="43.06717" lon="5.8678">
        <ele>85</ele>
        <time>2022-08-14T21:28:31Z</time>
      </trkpt>
      <trkpt lat="43.06724" lon="5.86778">
        <ele>84</ele>
        <time>2022-08-14T21:28:33Z</time>
      </trkpt>
      <trkpt lat="43.06732" lon="5.86773">
        <ele>83</ele>
        <time>2022-08-14T21:28:34Z</time>
      </trkpt>
      <trkpt lat="43.06738" lon="5.86766">
        <ele>82</ele>
        <time>2022-08-14T21:28:36Z</time>
      </trkpt>
      <trkpt lat="43.06742" lon="5.86758">
        <ele>81</ele>
        <time>2022-08-14T21:28:37Z</time>
      </trkpt>
      <trkpt lat="43.06744" lon="5.8675">
        <ele>80</ele>
        <time>2022-08-14T21:28:38Z</time>
      </trkpt>
      <trkpt lat="43.06745" lon="5.8674">
        <ele>79</ele>
        <time>2022-08-14T21:28:39Z</time>
      </trkpt>
      <trkpt lat="43.06741" lon="5.86691">
        <ele>75</ele>
        <time>2022-08-14T21:28:46Z</time>
      </trkpt>
      <trkpt lat="43.06741" lon="5.86681">
        <ele>74</ele>
        <time>2022-08-14T21:28:47Z</time>
      </trkpt>
      <trkpt lat="43.06743" lon="5.8667">
        <ele>72</ele>
        <time>2022-08-14T21:28:48Z</time>
      </trkpt>
      <trkpt lat="43.0675" lon="5.86651">
        <ele>73</ele>
        <time>2022-08-14T21:28:51Z</time>
      </trkpt>
      <trkpt lat="43.06761" lon="5.86638">
        <ele>74</ele>
        <time>2022-08-14T21:28:54Z</time>
      </trkpt>
      <trkpt lat="43.06796" lon="5.86613">
        <ele>72</ele>
        <time>2022-08-14T21:29:01Z</time>
      </trkpt>
      <trkpt lat="43.06808" lon="5.86601">
        <ele>71</ele>
        <time>2022-08-14T21:29:03Z</time>
      </trkpt>
      <trkpt lat="43.06835" lon="5.8655">
        <ele>71</ele>
        <time>2022-08-14T21:29:12Z</time>
      </trkpt>
      <trkpt lat="43.06864" lon="5.86507">
        <ele>71</ele>
        <time>2022-08-14T21:29:19Z</time>
      </trkpt>
      <trkpt lat="43.06883" lon="5.86488">
        <ele>71</ele>
        <time>2022-08-14T21:29:23Z</time>
      </trkpt>
      <trkpt lat="43.06899" lon="5.86477">
        <ele>70</ele>
        <time>2022-08-14T21:29:27Z</time>
      </trkpt>
      <trkpt lat="43.06919" lon="5.86468">
        <ele>69</ele>
        <time>2022-08-14T21:29:30Z</time>
      </trkpt>
      <trkpt lat="43.06962" lon="5.86456">
        <ele>63</ele>
        <time>2022-08-14T21:29:38Z</time>
      </trkpt>
      <trkpt lat="43.06975" lon="5.86449">
        <ele>61</ele>
        <time>2022-08-14T21:29:41Z</time>
      </trkpt>
      <trkpt lat="43.06988" lon="5.86438">
        <ele>60</ele>
        <time>2022-08-14T21:29:43Z</time>
      </trkpt>
      <trkpt lat="43.0703" lon="5.86389">
        <ele>62</ele>
        <time>2022-08-14T21:29:53Z</time>
      </trkpt>
      <trkpt lat="43.0704" lon="5.8638">
        <ele>62</ele>
        <time>2022-08-14T21:29:55Z</time>
      </trkpt>
      <trkpt lat="43.07049" lon="5.86375">
        <ele>62</ele>
        <time>2022-08-14T21:29:57Z</time>
      </trkpt>
      <trkpt lat="43.07057" lon="5.86374">
        <ele>61</ele>
        <time>2022-08-14T21:29:59Z</time>
      </trkpt>
      <trkpt lat="43.07069" lon="5.86381">
        <ele>59</ele>
        <time>2022-08-14T21:30:01Z</time>
      </trkpt>
      <trkpt lat="43.07077" lon="5.86388">
        <ele>57</ele>
        <time>2022-08-14T21:30:03Z</time>
      </trkpt>
      <trkpt lat="43.07082" lon="5.86398">
        <ele>56</ele>
        <time>2022-08-14T21:30:04Z</time>
      </trkpt>
      <trkpt lat="43.07086" lon="5.86411">
        <ele>54</ele>
        <time>2022-08-14T21:30:06Z</time>
      </trkpt>
      <trkpt lat="43.07086" lon="5.86423">
        <ele>54</ele>
        <time>2022-08-14T21:30:08Z</time>
      </trkpt>
      <trkpt lat="43.07084" lon="5.86436">
        <ele>54</ele>
        <time>2022-08-14T21:30:09Z</time>
      </trkpt>
      <trkpt lat="43.07063" lon="5.86484">
        <ele>54</ele>
        <time>2022-08-14T21:30:17Z</time>
      </trkpt>
      <trkpt lat="43.07059" lon="5.86503">
        <ele>53</ele>
        <time>2022-08-14T21:30:19Z</time>
      </trkpt>
      <trkpt lat="43.07058" lon="5.86524">
        <ele>52</ele>
        <time>2022-08-14T21:30:22Z</time>
      </trkpt>
      <trkpt lat="43.0706" lon="5.86546">
        <ele>51</ele>
        <time>2022-08-14T21:30:25Z</time>
      </trkpt>
      <trkpt lat="43.07084" lon="5.86673">
        <ele>50</ele>
        <time>2022-08-14T21:30:42Z</time>
      </trkpt>
      <trkpt lat="43.07095" lon="5.86714">
        <ele>50</ele>
        <time>2022-08-14T21:30:47Z</time>
      </trkpt>
      <trkpt lat="43.07141" lon="5.86817">
        <ele>48</ele>
        <time>2022-08-14T21:31:03Z</time>
      </trkpt>
      <trkpt lat="43.07169" lon="5.86894">
        <ele>41</ele>
        <time>2022-08-14T21:31:14Z</time>
      </trkpt>
      <trkpt lat="43.07179" lon="5.86934">
        <ele>36</ele>
        <time>2022-08-14T21:31:20Z</time>
      </trkpt>
      <trkpt lat="43.07188" lon="5.87002">
        <ele>29</ele>
        <time>2022-08-14T21:31:29Z</time>
      </trkpt>
      <trkpt lat="43.07193" lon="5.87066">
        <ele>26</ele>
        <time>2022-08-14T21:31:37Z</time>
      </trkpt>
      <trkpt lat="43.07189" lon="5.87108">
        <ele>25</ele>
        <time>2022-08-14T21:31:43Z</time>
      </trkpt>
      <trkpt lat="43.07178" lon="5.87156">
        <ele>24</ele>
        <time>2022-08-14T21:31:49Z</time>
      </trkpt>
      <trkpt lat="43.07158" lon="5.87176">
        <ele>24</ele>
        <time>2022-08-14T21:31:54Z</time>
      </trkpt>
      <trkpt lat="43.0715" lon="5.87181">
        <ele>24</ele>
        <time>2022-08-14T21:31:55Z</time>
      </trkpt>
      <trkpt lat="43.07146" lon="5.87187">
        <ele>24</ele>
        <time>2022-08-14T21:31:56Z</time>
      </trkpt>
      <trkpt lat="43.07144" lon="5.872">
        <ele>25</ele>
        <time>2022-08-14T21:31:58Z</time>
      </trkpt>
      <trkpt lat="43.07147" lon="5.87211">
        <ele>25</ele>
        <time>2022-08-14T21:31:59Z</time>
      </trkpt>
      <trkpt lat="43.07153" lon="5.87218">
        <ele>25</ele>
        <time>2022-08-14T21:32:01Z</time>
      </trkpt>
      <trkpt lat="43.07179" lon="5.87227">
        <ele>25</ele>
        <time>2022-08-14T21:32:06Z</time>
      </trkpt>
      <trkpt lat="43.07186" lon="5.87245">
        <ele>26</ele>
        <time>2022-08-14T21:32:08Z</time>
      </trkpt>
      <trkpt lat="43.07215" lon="5.87276">
        <ele>25</ele>
        <time>2022-08-14T21:32:15Z</time>
      </trkpt>
      <trkpt lat="43.07258" lon="5.87298">
        <ele>25</ele>
        <time>2022-08-14T21:32:23Z</time>
      </trkpt>
      <trkpt lat="43.07281" lon="5.87295">
        <ele>25</ele>
        <time>2022-08-14T21:32:27Z</time>
      </trkpt>
      <trkpt lat="43.07314" lon="5.87315">
        <ele>25</ele>
        <time>2022-08-14T21:32:34Z</time>
      </trkpt>
      <trkpt lat="43.07344" lon="5.87346">
        <ele>24</ele>
        <time>2022-08-14T21:32:40Z</time>
      </trkpt>
      <trkpt lat="43.07363" lon="5.87389">
        <ele>24</ele>
        <time>2022-08-14T21:32:47Z</time>
      </trkpt>
      <trkpt lat="43.07386" lon="5.8742">
        <ele>23</ele>
        <time>2022-08-14T21:32:52Z</time>
      </trkpt>
      <trkpt lat="43.07413" lon="5.87437">
        <ele>21</ele>
        <time>2022-08-14T21:32:58Z</time>
      </trkpt>
      <trkpt lat="43.07475" lon="5.87443">
        <ele>20</ele>
        <time>2022-08-14T21:33:09Z</time>
      </trkpt>
      <trkpt lat="43.0747" lon="5.87507">
        <ele>17</ele>
        <time>2022-08-14T21:33:17Z</time>
      </trkpt>
      <trkpt lat="43.07474" lon="5.87543">
        <ele>16</ele>
        <time>2022-08-14T21:33:22Z</time>
      </trkpt>
      <trkpt lat="43.07485" lon="5.8757">
        <ele>16</ele>
        <time>2022-08-14T21:33:26Z</time>
      </trkpt>
      <trkpt lat="43.07499" lon="5.87594">
        <ele>17</ele>
        <time>2022-08-14T21:33:30Z</time>
      </trkpt>
      <trkpt lat="43.07505" lon="5.876">
        <ele>18</ele>
        <time>2022-08-14T21:33:31Z</time>
      </trkpt>
      <trkpt lat="43.07511" lon="5.87602">
        <ele>18</ele>
        <time>2022-08-14T21:33:32Z</time>
      </trkpt>
      <trkpt lat="43.07526" lon="5.87602">
        <ele>18</ele>
        <time>2022-08-14T21:33:35Z</time>
      </trkpt>
      <trkpt lat="43.0764" lon="5.87554">
        <ele>20</ele>
        <time>2022-08-14T21:33:56Z</time>
      </trkpt>
      <trkpt lat="43.07649" lon="5.87552">
        <ele>21</ele>
        <time>2022-08-14T21:33:58Z</time>
      </trkpt>
      <trkpt lat="43.07656" lon="5.87554">
        <ele>21</ele>
        <time>2022-08-14T21:33:59Z</time>
      </trkpt>
      <trkpt lat="43.07696" lon="5.87498">
        <ele>21</ele>
        <time>2022-08-14T21:34:09Z</time>
      </trkpt>
      <trkpt lat="43.07767" lon="5.87375">
        <ele>24</ele>
        <time>2022-08-14T21:34:30Z</time>
      </trkpt>
      <trkpt lat="43.0781" lon="5.8731">
        <ele>27</ele>
        <time>2022-08-14T21:34:41Z</time>
      </trkpt>
      <trkpt lat="43.0785" lon="5.87244">
        <ele>28</ele>
        <time>2022-08-14T21:34:52Z</time>
      </trkpt>
      <trkpt lat="43.07894" lon="5.87147">
        <ele>27</ele>
        <time>2022-08-14T21:35:07Z</time>
      </trkpt>
      <trkpt lat="43.07947" lon="5.87011">
        <ele>30</ele>
        <time>2022-08-14T21:35:27Z</time>
      </trkpt>
      <trkpt lat="43.07997" lon="5.86914">
        <ele>33</ele>
        <time>2022-08-14T21:35:43Z</time>
      </trkpt>
      <trkpt lat="43.08009" lon="5.86857">
        <ele>33</ele>
        <time>2022-08-14T21:35:50Z</time>
      </trkpt>
      <trkpt lat="43.08079" lon="5.86744">
        <ele>36</ele>
        <time>2022-08-14T21:36:10Z</time>
      </trkpt>
      <trkpt lat="43.08091" lon="5.867">
        <ele>36</ele>
        <time>2022-08-14T21:36:16Z</time>
      </trkpt>
      <trkpt lat="43.08089" lon="5.86647">
        <ele>36</ele>
        <time>2022-08-14T21:36:23Z</time>
      </trkpt>
      <trkpt lat="43.08093" lon="5.86586">
        <ele>37</ele>
        <time>2022-08-14T21:36:30Z</time>
      </trkpt>
      <trkpt lat="43.08109" lon="5.8653">
        <ele>39</ele>
        <time>2022-08-14T21:36:38Z</time>
      </trkpt>
      <trkpt lat="43.08156" lon="5.86457">
        <ele>42</ele>
        <time>2022-08-14T21:36:51Z</time>
      </trkpt>
      <trkpt lat="43.08211" lon="5.8639">
        <ele>43</ele>
        <time>2022-08-14T21:37:04Z</time>
      </trkpt>
      <trkpt lat="43.08245" lon="5.86346">
        <ele>43</ele>
        <time>2022-08-14T21:37:12Z</time>
      </trkpt>
      <trkpt lat="43.08309" lon="5.86242">
        <ele>45</ele>
        <time>2022-08-14T21:37:30Z</time>
      </trkpt>
      <trkpt lat="43.08379" lon="5.86178">
        <ele>44</ele>
        <time>2022-08-14T21:37:45Z</time>
      </trkpt>
      <trkpt lat="43.08415" lon="5.86157">
        <ele>43</ele>
        <time>2022-08-14T21:37:52Z</time>
      </trkpt>
      <trkpt lat="43.08425" lon="5.86157">
        <ele>43</ele>
        <time>2022-08-14T21:37:54Z</time>
      </trkpt>
      <trkpt lat="43.08431" lon="5.86147">
        <ele>43</ele>
        <time>2022-08-14T21:37:55Z</time>
      </trkpt>
      <trkpt lat="43.08435" lon="5.86108">
        <ele>44</ele>
        <time>2022-08-14T21:38:01Z</time>
      </trkpt>
      <trkpt lat="43.08444" lon="5.86057">
        <ele>44</ele>
        <time>2022-08-14T21:38:07Z</time>
      </trkpt>
      <trkpt lat="43.08482" lon="5.85903">
        <ele>45</ele>
        <time>2022-08-14T21:38:28Z</time>
      </trkpt>
      <trkpt lat="43.08486" lon="5.85873">
        <ele>45</ele>
        <time>2022-08-14T21:38:32Z</time>
      </trkpt>
      <trkpt lat="43.08491" lon="5.85853">
        <ele>45</ele>
        <time>2022-08-14T21:38:35Z</time>
      </trkpt>
      <trkpt lat="43.08499" lon="5.85842">
        <ele>45</ele>
        <time>2022-08-14T21:38:37Z</time>
      </trkpt>
      <trkpt lat="43.08507" lon="5.85839">
        <ele>45</ele>
        <time>2022-08-14T21:38:39Z</time>
      </trkpt>
      <trkpt lat="43.08512" lon="5.85831">
        <ele>45</ele>
        <time>2022-08-14T21:38:40Z</time>
      </trkpt>
      <trkpt lat="43.08513" lon="5.85821">
        <ele>45</ele>
        <time>2022-08-14T21:38:41Z</time>
      </trkpt>
      <trkpt lat="43.08511" lon="5.85815">
        <ele>45</ele>
        <time>2022-08-14T21:38:42Z</time>
      </trkpt>
      <trkpt lat="43.08518" lon="5.85795">
        <ele>46</ele>
        <time>2022-08-14T21:38:45Z</time>
      </trkpt>
      <trkpt lat="43.08624" lon="5.85671">
        <ele>47</ele>
        <time>2022-08-14T21:39:10Z</time>
      </trkpt>
      <trkpt lat="43.08651" lon="5.85647">
        <ele>46</ele>
        <time>2022-08-14T21:39:16Z</time>
      </trkpt>
      <trkpt lat="43.08709" lon="5.85577">
        <ele>45</ele>
        <time>2022-08-14T21:39:29Z</time>
      </trkpt>
      <trkpt lat="43.08714" lon="5.8557">
        <ele>44</ele>
        <time>2022-08-14T21:39:31Z</time>
      </trkpt>
      <trkpt lat="43.08724" lon="5.85565">
        <ele>44</ele>
        <time>2022-08-14T21:39:33Z</time>
      </trkpt>
      <trkpt lat="43.0873" lon="5.85564">
        <ele>44</ele>
        <time>2022-08-14T21:39:34Z</time>
      </trkpt>
      <trkpt lat="43.08733" lon="5.8556">
        <ele>44</ele>
        <time>2022-08-14T21:39:34Z</time>
      </trkpt>
      <trkpt lat="43.08733" lon="5.85552">
        <ele>44</ele>
        <time>2022-08-14T21:39:35Z</time>
      </trkpt>
      <trkpt lat="43.08737" lon="5.85536">
        <ele>44</ele>
        <time>2022-08-14T21:39:38Z</time>
      </trkpt>
      <trkpt lat="43.08781" lon="5.85435">
        <ele>45</ele>
        <time>2022-08-14T21:39:53Z</time>
      </trkpt>
      <trkpt lat="43.08799" lon="5.85378">
        <ele>44</ele>
        <time>2022-08-14T21:40:01Z</time>
      </trkpt>
      <trkpt lat="43.08856" lon="5.85253">
        <ele>42</ele>
        <time>2022-08-14T21:40:20Z</time>
      </trkpt>
      <trkpt lat="43.08894" lon="5.85181">
        <ele>41</ele>
        <time>2022-08-14T21:40:32Z</time>
      </trkpt>
      <trkpt lat="43.08898" lon="5.85181">
        <ele>41</ele>
        <time>2022-08-14T21:40:32Z</time>
      </trkpt>
      <trkpt lat="43.08901" lon="5.85177">
        <ele>41</ele>
        <time>2022-08-14T21:40:33Z</time>
      </trkpt>
      <trkpt lat="43.089" lon="5.8517">
        <ele>41</ele>
        <time>2022-08-14T21:40:34Z</time>
      </trkpt>
      <trkpt lat="43.08919" lon="5.85134">
        <ele>40</ele>
        <time>2022-08-14T21:40:40Z</time>
      </trkpt>
      <trkpt lat="43.08931" lon="5.85114">
        <ele>40</ele>
        <time>2022-08-14T21:40:43Z</time>
      </trkpt>
      <trkpt lat="43.08936" lon="5.85106">
        <ele>39</ele>
        <time>2022-08-14T21:40:45Z</time>
      </trkpt>
      <trkpt lat="43.0895" lon="5.85084">
        <ele>39</ele>
        <time>2022-08-14T21:40:48Z</time>
      </trkpt>
      <trkpt lat="43.08973" lon="5.8505">
        <ele>38</ele>
        <time>2022-08-14T21:40:54Z</time>
      </trkpt>
      <trkpt lat="43.09021" lon="5.84967">
        <ele>38</ele>
        <time>2022-08-14T21:41:08Z</time>
      </trkpt>
      <trkpt lat="43.0904" lon="5.84938">
        <ele>38</ele>
        <time>2022-08-14T21:41:13Z</time>
      </trkpt>
      <trkpt lat="43.09056" lon="5.84932">
        <ele>38</ele>
        <time>2022-08-14T21:41:16Z</time>
      </trkpt>
      <trkpt lat="43.0906" lon="5.84933">
        <ele>38</ele>
        <time>2022-08-14T21:41:17Z</time>
      </trkpt>
      <trkpt lat="43.09068" lon="5.84931">
        <ele>38</ele>
        <time>2022-08-14T21:41:18Z</time>
      </trkpt>
      <trkpt lat="43.09073" lon="5.84924">
        <ele>38</ele>
        <time>2022-08-14T21:41:20Z</time>
      </trkpt>
      <trkpt lat="43.09075" lon="5.84915">
        <ele>38</ele>
        <time>2022-08-14T21:41:21Z</time>
      </trkpt>
      <trkpt lat="43.09071" lon="5.84904">
        <ele>38</ele>
        <time>2022-08-14T21:41:22Z</time>
      </trkpt>
      <trkpt lat="43.09068" lon="5.84871">
        <ele>38</ele>
        <time>2022-08-14T21:41:27Z</time>
      </trkpt>
      <trkpt lat="43.09095" lon="5.84745">
        <ele>37</ele>
        <time>2022-08-14T21:41:44Z</time>
      </trkpt>
      <trkpt lat="43.09103" lon="5.84696">
        <ele>37</ele>
        <time>2022-08-14T21:41:50Z</time>
      </trkpt>
      <trkpt lat="43.09111" lon="5.84635">
        <ele>37</ele>
        <time>2022-08-14T21:41:58Z</time>
      </trkpt>
      <trkpt lat="43.09118" lon="5.84538">
        <ele>37</ele>
        <time>2022-08-14T21:42:11Z</time>
      </trkpt>
      <trkpt lat="43.0912" lon="5.84521">
        <ele>37</ele>
        <time>2022-08-14T21:42:13Z</time>
      </trkpt>
      <trkpt lat="43.09134" lon="5.84465">
        <ele>36</ele>
        <time>2022-08-14T21:42:21Z</time>
      </trkpt>
      <trkpt lat="43.09143" lon="5.84434">
        <ele>36</ele>
        <time>2022-08-14T21:42:25Z</time>
      </trkpt>
      <trkpt lat="43.09146" lon="5.84431">
        <ele>36</ele>
        <time>2022-08-14T21:42:26Z</time>
      </trkpt>
      <trkpt lat="43.09146" lon="5.84426">
        <ele>36</ele>
        <time>2022-08-14T21:42:27Z</time>
      </trkpt>
      <trkpt lat="43.09154" lon="5.84417">
        <ele>36</ele>
        <time>2022-08-14T21:42:28Z</time>
      </trkpt>
      <trkpt lat="43.09157" lon="5.84417">
        <ele>36</ele>
        <time>2022-08-14T21:42:29Z</time>
      </trkpt>
      <trkpt lat="43.0926" lon="5.84443">
        <ele>36</ele>
        <time>2022-08-14T21:42:48Z</time>
      </trkpt>
      <trkpt lat="43.09291" lon="5.84453">
        <ele>36</ele>
        <time>2022-08-14T21:42:53Z</time>
      </trkpt>
      <trkpt lat="43.0932" lon="5.84464">
        <ele>36</ele>
        <time>2022-08-14T21:42:59Z</time>
      </trkpt>
      <trkpt lat="43.09335" lon="5.84478">
        <ele>35</ele>
        <time>2022-08-14T21:43:02Z</time>
      </trkpt>
      <trkpt lat="43.09339" lon="5.8449">
        <ele>35</ele>
        <time>2022-08-14T21:43:04Z</time>
      </trkpt>
      <trkpt lat="43.09346" lon="5.84494">
        <ele>36</ele>
        <time>2022-08-14T21:43:05Z</time>
      </trkpt>
      <trkpt lat="43.0935" lon="5.84494">
        <ele>36</ele>
        <time>2022-08-14T21:43:06Z</time>
      </trkpt>
      <trkpt lat="43.09357" lon="5.84489">
        <ele>36</ele>
        <time>2022-08-14T21:43:07Z</time>
      </trkpt>
      <trkpt lat="43.0936" lon="5.84478">
        <ele>36</ele>
        <time>2022-08-14T21:43:09Z</time>
      </trkpt>
      <trkpt lat="43.09358" lon="5.84467">
        <ele>36</ele>
        <time>2022-08-14T21:43:10Z</time>
      </trkpt>
      <trkpt lat="43.09355" lon="5.84463">
        <ele>36</ele>
        <time>2022-08-14T21:43:11Z</time>
      </trkpt>
      <trkpt lat="43.0935" lon="5.84446">
        <ele>36</ele>
        <time>2022-08-14T21:43:13Z</time>
      </trkpt>
      <trkpt lat="43.09341" lon="5.84394">
        <ele>36</ele>
        <time>2022-08-14T21:43:20Z</time>
      </trkpt>
      <trkpt lat="43.09333" lon="5.84327">
        <ele>36</ele>
        <time>2022-08-14T21:43:29Z</time>
      </trkpt>
      <trkpt lat="43.09332" lon="5.84241">
        <ele>34</ele>
        <time>2022-08-14T21:43:40Z</time>
      </trkpt>
      <trkpt lat="43.09334" lon="5.84204">
        <ele>33</ele>
        <time>2022-08-14T21:43:45Z</time>
      </trkpt>
      <trkpt lat="43.09337" lon="5.84204">
        <ele>34</ele>
        <time>2022-08-14T21:43:45Z</time>
      </trkpt>
      <trkpt lat="43.09344" lon="5.84134">
        <ele>34</ele>
        <time>2022-08-14T21:43:55Z</time>
      </trkpt>
      <trkpt lat="43.09355" lon="5.84079">
        <ele>36</ele>
        <time>2022-08-14T21:44:02Z</time>
      </trkpt>
      <trkpt lat="43.09362" lon="5.84063">
        <ele>35</ele>
        <time>2022-08-14T21:44:04Z</time>
      </trkpt>
      <trkpt lat="43.09368" lon="5.84054">
        <ele>35</ele>
        <time>2022-08-14T21:44:06Z</time>
      </trkpt>
      <trkpt lat="43.09372" lon="5.84044">
        <ele>35</ele>
        <time>2022-08-14T21:44:08Z</time>
      </trkpt>
      <trkpt lat="43.09397" lon="5.83906">
        <ele>32</ele>
        <time>2022-08-14T21:44:26Z</time>
      </trkpt>
      <trkpt lat="43.094" lon="5.83873">
        <ele>32</ele>
        <time>2022-08-14T21:44:30Z</time>
      </trkpt>
      <trkpt lat="43.09406" lon="5.83837">
        <ele>31</ele>
        <time>2022-08-14T21:44:35Z</time>
      </trkpt>
      <trkpt lat="43.09419" lon="5.83825">
        <ele>31</ele>
        <time>2022-08-14T21:44:38Z</time>
      </trkpt>
      <trkpt lat="43.09411" lon="5.83817">
        <ele>31</ele>
        <time>2022-08-14T21:44:40Z</time>
      </trkpt>
      <trkpt lat="43.09409" lon="5.83809">
        <ele>31</ele>
        <time>2022-08-14T21:44:41Z</time>
      </trkpt>
      <trkpt lat="43.09405" lon="5.83805">
        <ele>31</ele>
        <time>2022-08-14T21:44:42Z</time>
      </trkpt>
      <trkpt lat="43.09402" lon="5.83791">
        <ele>31</ele>
        <time>2022-08-14T21:44:44Z</time>
      </trkpt>
      <trkpt lat="43.09425" lon="5.83657">
        <ele>31</ele>
        <time>2022-08-14T21:45:01Z</time>
      </trkpt>
      <trkpt lat="43.09429" lon="5.83645">
        <ele>31</ele>
        <time>2022-08-14T21:45:03Z</time>
      </trkpt>
      <trkpt lat="43.09435" lon="5.83645">
        <ele>31</ele>
        <time>2022-08-14T21:45:04Z</time>
      </trkpt>
      <trkpt lat="43.09441" lon="5.83638">
        <ele>31</ele>
        <time>2022-08-14T21:45:06Z</time>
      </trkpt>
      <trkpt lat="43.09443" lon="5.83632">
        <ele>31</ele>
        <time>2022-08-14T21:45:06Z</time>
      </trkpt>
      <trkpt lat="43.0944" lon="5.83623">
        <ele>31</ele>
        <time>2022-08-14T21:45:08Z</time>
      </trkpt>
      <trkpt lat="43.09434" lon="5.83619">
        <ele>31</ele>
        <time>2022-08-14T21:45:09Z</time>
      </trkpt>
      <trkpt lat="43.09436" lon="5.83599">
        <ele>31</ele>
        <time>2022-08-14T21:45:12Z</time>
      </trkpt>
      <trkpt lat="43.09457" lon="5.83481">
        <ele>29</ele>
        <time>2022-08-14T21:45:27Z</time>
      </trkpt>
      <trkpt lat="43.09461" lon="5.83445">
        <ele>29</ele>
        <time>2022-08-14T21:45:32Z</time>
      </trkpt>
      <trkpt lat="43.09463" lon="5.8342">
        <ele>28</ele>
        <time>2022-08-14T21:45:35Z</time>
      </trkpt>
      <trkpt lat="43.09467" lon="5.83407">
        <ele>28</ele>
        <time>2022-08-14T21:45:37Z</time>
      </trkpt>
      <trkpt lat="43.09473" lon="5.834">
        <ele>28</ele>
        <time>2022-08-14T21:45:39Z</time>
      </trkpt>
      <trkpt lat="43.09475" lon="5.83395">
        <ele>28</ele>
        <time>2022-08-14T21:45:39Z</time>
      </trkpt>
      <trkpt lat="43.09476" lon="5.83386">
        <ele>27</ele>
        <time>2022-08-14T21:45:41Z</time>
      </trkpt>
      <trkpt lat="43.09474" lon="5.83377">
        <ele>27</ele>
        <time>2022-08-14T21:45:42Z</time>
      </trkpt>
      <trkpt lat="43.09478" lon="5.83363">
        <ele>26</ele>
        <time>2022-08-14T21:45:44Z</time>
      </trkpt>
      <trkpt lat="43.09481" lon="5.83363">
        <ele>26</ele>
        <time>2022-08-14T21:45:44Z</time>
      </trkpt>
      <trkpt lat="43.09485" lon="5.8336">
        <ele>26</ele>
        <time>2022-08-14T21:45:45Z</time>
      </trkpt>
      <trkpt lat="43.09502" lon="5.83333">
        <ele>25</ele>
        <time>2022-08-14T21:45:50Z</time>
      </trkpt>
      <trkpt lat="43.09832" lon="5.828">
        <ele>20</ele>
        <time>2022-08-14T21:47:20Z</time>
      </trkpt>
      <trkpt lat="43.09832" lon="5.82797">
        <ele>20</ele>
        <time>2022-08-14T21:47:21Z</time>
      </trkpt>
      <trkpt lat="43.09828" lon="5.82793">
        <ele>20</ele>
        <time>2022-08-14T21:47:22Z</time>
      </trkpt>
      <trkpt lat="43.09833" lon="5.82784">
        <ele>20</ele>
        <time>2022-08-14T21:47:23Z</time>
      </trkpt>
      <trkpt lat="43.09842" lon="5.82774">
        <ele>19</ele>
        <time>2022-08-14T21:47:25Z</time>
      </trkpt>
      <trkpt lat="43.0985" lon="5.8277">
        <ele>20</ele>
        <time>2022-08-14T21:47:27Z</time>
      </trkpt>
      <trkpt lat="43.09854" lon="5.82762">
        <ele>19</ele>
        <time>2022-08-14T21:47:28Z</time>
      </trkpt>
      <trkpt lat="43.09856" lon="5.82749">
        <ele>19</ele>
        <time>2022-08-14T21:47:30Z</time>
      </trkpt>
      <trkpt lat="43.09862" lon="5.82739">
        <ele>19</ele>
        <time>2022-08-14T21:47:31Z</time>
      </trkpt>
      <trkpt lat="43.0988" lon="5.82717">
        <ele>19</ele>
        <time>2022-08-14T21:47:36Z</time>
      </trkpt>
      <trkpt lat="43.09903" lon="5.82683">
        <ele>18</ele>
        <time>2022-08-14T21:47:42Z</time>
      </trkpt>
      <trkpt lat="43.09969" lon="5.82576">
        <ele>16</ele>
        <time>2022-08-14T21:48:00Z</time>
      </trkpt>
      <trkpt lat="43.09972" lon="5.82565">
        <ele>16</ele>
        <time>2022-08-14T21:48:01Z</time>
      </trkpt>
      <trkpt lat="43.10118" lon="5.82331">
        <ele>12</ele>
        <time>2022-08-14T21:48:41Z</time>
      </trkpt>
      <trkpt lat="43.10122" lon="5.82328">
        <ele>12</ele>
        <time>2022-08-14T21:48:42Z</time>
      </trkpt>
      <trkpt lat="43.10123" lon="5.82324">
        <ele>12</ele>
        <time>2022-08-14T21:48:43Z</time>
      </trkpt>
      <trkpt lat="43.10139" lon="5.82294">
        <ele>12</ele>
        <time>2022-08-14T21:48:48Z</time>
      </trkpt>
      <trkpt lat="43.10273" lon="5.82079">
        <ele>9</ele>
        <time>2022-08-14T21:49:24Z</time>
      </trkpt>
      <trkpt lat="43.10288" lon="5.82061">
        <ele>9</ele>
        <time>2022-08-14T21:49:28Z</time>
      </trkpt>
      <trkpt lat="43.10298" lon="5.82046">
        <ele>9</ele>
        <time>2022-08-14T21:49:31Z</time>
      </trkpt>
      <trkpt lat="43.10344" lon="5.81971">
        <ele>8</ele>
        <time>2022-08-14T21:49:43Z</time>
      </trkpt>
      <trkpt lat="43.10382" lon="5.81906">
        <ele>7</ele>
        <time>2022-08-14T21:49:54Z</time>
      </trkpt>
      <trkpt lat="43.10389" lon="5.81891">
        <ele>7</ele>
        <time>2022-08-14T21:49:56Z</time>
      </trkpt>
      <trkpt lat="43.10425" lon="5.81833">
        <ele>6</ele>
        <time>2022-08-14T21:50:06Z</time>
      </trkpt>
      <trkpt lat="43.10454" lon="5.81779">
        <ele>6</ele>
        <time>2022-08-14T21:50:15Z</time>
      </trkpt>
      <trkpt lat="43.10472" lon="5.81753">
        <ele>6</ele>
        <time>2022-08-14T21:50:20Z</time>
      </trkpt>
      <trkpt lat="43.10478" lon="5.81751">
        <ele>6</ele>
        <time>2022-08-14T21:50:21Z</time>
      </trkpt>
      <trkpt lat="43.10483" lon="5.81745">
        <ele>6</ele>
        <time>2022-08-14T21:50:22Z</time>
      </trkpt>
      <trkpt lat="43.10484" lon="5.81736">
        <ele>6</ele>
        <time>2022-08-14T21:50:23Z</time>
      </trkpt>
      <trkpt lat="43.10497" lon="5.81708">
        <ele>6</ele>
        <time>2022-08-14T21:50:27Z</time>
      </trkpt>
      <trkpt lat="43.10597" lon="5.8155">
        <ele>9</ele>
        <time>2022-08-14T21:50:55Z</time>
      </trkpt>
      <trkpt lat="43.10604" lon="5.81539">
        <ele>8</ele>
        <time>2022-08-14T21:50:57Z</time>
      </trkpt>
      <trkpt lat="43.1063" lon="5.8151">
        <ele>8</ele>
        <time>2022-08-14T21:51:02Z</time>
      </trkpt>
      <trkpt lat="43.10661" lon="5.81468">
        <ele>6</ele>
        <time>2022-08-14T21:51:10Z</time>
      </trkpt>
      <trkpt lat="43.10669" lon="5.8146">
        <ele>6</ele>
        <time>2022-08-14T21:51:12Z</time>
      </trkpt>
      <trkpt lat="43.10678" lon="5.81459">
        <ele>6</ele>
        <time>2022-08-14T21:51:14Z</time>
      </trkpt>
      <trkpt lat="43.10686" lon="5.81451">
        <ele>6</ele>
        <time>2022-08-14T21:51:15Z</time>
      </trkpt>
      <trkpt lat="43.10688" lon="5.81446">
        <ele>6</ele>
        <time>2022-08-14T21:51:16Z</time>
      </trkpt>
      <trkpt lat="43.10688" lon="5.81438">
        <ele>5</ele>
        <time>2022-08-14T21:51:17Z</time>
      </trkpt>
      <trkpt lat="43.10687" lon="5.8143">
        <ele>5</ele>
        <time>2022-08-14T21:51:18Z</time>
      </trkpt>
      <trkpt lat="43.10681" lon="5.81422">
        <ele>4</ele>
        <time>2022-08-14T21:51:20Z</time>
      </trkpt>
      <trkpt lat="43.10679" lon="5.81407">
        <ele>3</ele>
        <time>2022-08-14T21:51:22Z</time>
      </trkpt>
      <trkpt lat="43.10698" lon="5.8141">
        <ele>4</ele>
        <time>2022-08-14T21:51:25Z</time>
      </trkpt>
      <trkpt lat="43.10725" lon="5.81407">
        <ele>5</ele>
        <time>2022-08-14T21:51:30Z</time>
      </trkpt>
      <trkpt lat="43.10814" lon="5.81365">
        <ele>3</ele>
        <time>2022-08-14T21:51:47Z</time>
      </trkpt>
      <trkpt lat="43.10861" lon="5.81339">
        <ele>2</ele>
        <time>2022-08-14T21:51:56Z</time>
      </trkpt>
      <trkpt lat="43.10878" lon="5.81331">
        <ele>2</ele>
        <time>2022-08-14T21:51:59Z</time>
      </trkpt>
      <trkpt lat="43.10895" lon="5.81328">
        <ele>2</ele>
        <time>2022-08-14T21:52:02Z</time>
      </trkpt>
      <trkpt lat="43.10906" lon="5.81324">
        <ele>2</ele>
        <time>2022-08-14T21:52:04Z</time>
      </trkpt>
      <trkpt lat="43.11219" lon="5.81159">
        <ele>2</ele>
        <time>2022-08-14T21:53:04Z</time>
      </trkpt>
      <trkpt lat="43.11273" lon="5.81126">
        <ele>3</ele>
        <time>2022-08-14T21:53:14Z</time>
      </trkpt>
      <trkpt lat="43.11279" lon="5.81113">
        <ele>3</ele>
        <time>2022-08-14T21:53:16Z</time>
      </trkpt>
      <trkpt lat="43.11283" lon="5.81116">
        <ele>3</ele>
        <time>2022-08-14T21:53:17Z</time>
      </trkpt>
      <trkpt lat="43.11285" lon="5.8112">
        <ele>3</ele>
        <time>2022-08-14T21:53:18Z</time>
      </trkpt>
      <trkpt lat="43.11281" lon="5.81129">
        <ele>3</ele>
        <time>2022-08-14T21:53:19Z</time>
      </trkpt>
      <trkpt lat="43.11281" lon="5.81134">
        <ele>4</ele>
        <time>2022-08-14T21:53:20Z</time>
      </trkpt>
      <trkpt lat="43.11282" lon="5.81139">
        <ele>4</ele>
        <time>2022-08-14T21:53:20Z</time>
      </trkpt>
      <trkpt lat="43.11287" lon="5.81146">
        <ele>4</ele>
        <time>2022-08-14T21:53:22Z</time>
      </trkpt>
      <trkpt lat="43.11293" lon="5.81149">
        <ele>4</ele>
        <time>2022-08-14T21:53:23Z</time>
      </trkpt>
      <trkpt lat="43.11301" lon="5.81145">
        <ele>4</ele>
        <time>2022-08-14T21:53:24Z</time>
      </trkpt>
      <trkpt lat="43.11305" lon="5.81137">
        <ele>4</ele>
        <time>2022-08-14T21:53:25Z</time>
      </trkpt>
      <trkpt lat="43.11314" lon="5.81139">
        <ele>5</ele>
        <time>2022-08-14T21:53:27Z</time>
      </trkpt>
      <trkpt lat="43.11374" lon="5.81144">
        <ele>5</ele>
        <time>2022-08-14T21:53:38Z</time>
      </trkpt>
      <trkpt lat="43.11381" lon="5.81158">
        <ele>5</ele>
        <time>2022-08-14T21:53:40Z</time>
      </trkpt>
      <trkpt lat="43.11384" lon="5.81167">
        <ele>5</ele>
        <time>2022-08-14T21:53:41Z</time>
      </trkpt>
      <trkpt lat="43.11389" lon="5.8117">
        <ele>5</ele>
        <time>2022-08-14T21:53:42Z</time>
      </trkpt>
      <trkpt lat="43.11394" lon="5.81169">
        <ele>5</ele>
        <time>2022-08-14T21:53:43Z</time>
      </trkpt>
      <trkpt lat="43.11398" lon="5.81162">
        <ele>5</ele>
        <time>2022-08-14T21:53:44Z</time>
      </trkpt>
      <trkpt lat="43.11422" lon="5.81144">
        <ele>5</ele>
        <time>2022-08-14T21:53:49Z</time>
      </trkpt>
      <trkpt lat="43.1144" lon="5.81149">
        <ele>5</ele>
        <time>2022-08-14T21:53:52Z</time>
      </trkpt>
      <trkpt lat="43.11593" lon="5.81164">
        <ele>5</ele>
        <time>2022-08-14T21:54:20Z</time>
      </trkpt>
      <trkpt lat="43.11755" lon="5.81175">
        <ele>6</ele>
        <time>2022-08-14T21:54:49Z</time>
      </trkpt>
      <trkpt lat="43.1177" lon="5.81178">
        <ele>6</ele>
        <time>2022-08-14T21:54:51Z</time>
      </trkpt>
      <trkpt lat="43.11794" lon="5.81193">
        <ele>6</ele>
        <time>2022-08-14T21:54:56Z</time>
      </trkpt>
      <trkpt lat="43.11865" lon="5.81273">
        <ele>9</ele>
        <time>2022-08-14T21:55:12Z</time>
      </trkpt>
      <trkpt lat="43.11868" lon="5.81267">
        <ele>9</ele>
        <time>2022-08-14T21:55:13Z</time>
      </trkpt>
      <trkpt lat="43.1187" lon="5.81255">
        <ele>9</ele>
        <time>2022-08-14T21:55:15Z</time>
      </trkpt>
      <trkpt lat="43.11873" lon="5.81171">
        <ele>7</ele>
        <time>2022-08-14T21:55:26Z</time>
      </trkpt>
      <trkpt lat="43.11871" lon="5.8115">
        <ele>7</ele>
        <time>2022-08-14T21:55:29Z</time>
      </trkpt>
      <trkpt lat="43.11871" lon="5.81134">
        <ele>7</ele>
        <time>2022-08-14T21:55:31Z</time>
      </trkpt>
      <trkpt lat="43.11876" lon="5.81116">
        <ele>7</ele>
        <time>2022-08-14T21:55:33Z</time>
      </trkpt>
      <trkpt lat="43.11888" lon="5.81103">
        <ele>7</ele>
        <time>2022-08-14T21:55:36Z</time>
      </trkpt>
      <trkpt lat="43.11895" lon="5.81097">
        <ele>7</ele>
        <time>2022-08-14T21:55:37Z</time>
      </trkpt>
      <trkpt lat="43.11899" lon="5.811">
        <ele>8</ele>
        <time>2022-08-14T21:55:38Z</time>
      </trkpt>
      <trkpt lat="43.11903" lon="5.81113">
        <ele>8</ele>
        <time>2022-08-14T21:55:40Z</time>
      </trkpt>
      <trkpt lat="43.1191" lon="5.8115">
        <ele>8</ele>
        <time>2022-08-14T21:55:45Z</time>
      </trkpt>
      <trkpt lat="43.11918" lon="5.81177">
        <ele>8</ele>
        <time>2022-08-14T21:55:49Z</time>
      </trkpt>
      <trkpt lat="43.11945" lon="5.81258">
        <ele>9</ele>
        <time>2022-08-14T21:56:00Z</time>
      </trkpt>
      <trkpt lat="43.11957" lon="5.81284">
        <ele>9</ele>
        <time>2022-08-14T21:56:04Z</time>
      </trkpt>
      <trkpt lat="43.12029" lon="5.81388">
        <ele>8</ele>
        <time>2022-08-14T21:56:23Z</time>
      </trkpt>
      <trkpt lat="43.12045" lon="5.81417">
        <ele>9</ele>
        <time>2022-08-14T21:56:28Z</time>
      </trkpt>
      <trkpt lat="43.12056" lon="5.8145">
        <ele>9</ele>
        <time>2022-08-14T21:56:32Z</time>
      </trkpt>
      <trkpt lat="43.12065" lon="5.81494">
        <ele>10</ele>
        <time>2022-08-14T21:56:38Z</time>
      </trkpt>
      <trkpt lat="43.12069" lon="5.8152">
        <ele>10</ele>
        <time>2022-08-14T21:56:42Z</time>
      </trkpt>
      <trkpt lat="43.12073" lon="5.81559">
        <ele>9</ele>
        <time>2022-08-14T21:56:47Z</time>
      </trkpt>
      <trkpt lat="43.12068" lon="5.81583">
        <ele>9</ele>
        <time>2022-08-14T21:56:50Z</time>
      </trkpt>
      <trkpt lat="43.12068" lon="5.81595">
        <ele>9</ele>
        <time>2022-08-14T21:56:52Z</time>
      </trkpt>
      <trkpt lat="43.12071" lon="5.81608">
        <ele>9</ele>
        <time>2022-08-14T21:56:53Z</time>
      </trkpt>
      <trkpt lat="43.12078" lon="5.81637">
        <ele>10</ele>
        <time>2022-08-14T21:56:57Z</time>
      </trkpt>
      <trkpt lat="43.12082" lon="5.81642">
        <ele>10</ele>
        <time>2022-08-14T21:56:58Z</time>
      </trkpt>
      <trkpt lat="43.12103" lon="5.8176">
        <ele>10</ele>
        <time>2022-08-14T21:57:14Z</time>
      </trkpt>
      <trkpt lat="43.12107" lon="5.81763">
        <ele>10</ele>
        <time>2022-08-14T21:57:15Z</time>
      </trkpt>
      <trkpt lat="43.1211" lon="5.81774">
        <ele>10</ele>
        <time>2022-08-14T21:57:16Z</time>
      </trkpt>
      <trkpt lat="43.12114" lon="5.81777">
        <ele>10</ele>
        <time>2022-08-14T21:57:17Z</time>
      </trkpt>
      <trkpt lat="43.1212" lon="5.81775">
        <ele>10</ele>
        <time>2022-08-14T21:57:18Z</time>
      </trkpt>
      <trkpt lat="43.12122" lon="5.81766">
        <ele>10</ele>
        <time>2022-08-14T21:57:20Z</time>
      </trkpt>
      <trkpt lat="43.12104" lon="5.81712">
        <ele>10</ele>
        <time>2022-08-14T21:57:27Z</time>
      </trkpt>
      <trkpt lat="43.12095" lon="5.81673">
        <ele>10</ele>
        <time>2022-08-14T21:57:33Z</time>
      </trkpt>
      <trkpt lat="43.12088" lon="5.81639">
        <ele>10</ele>
        <time>2022-08-14T21:57:37Z</time>
      </trkpt>
      <trkpt lat="43.1209" lon="5.81615">
        <ele>9</ele>
        <time>2022-08-14T21:57:40Z</time>
      </trkpt>
      <trkpt lat="43.12092" lon="5.8161">
        <ele>9</ele>
        <time>2022-08-14T21:57:41Z</time>
      </trkpt>
      <trkpt lat="43.12106" lon="5.81596">
        <ele>9</ele>
        <time>2022-08-14T21:57:44Z</time>
      </trkpt>
      <trkpt lat="43.1225" lon="5.81495">
        <ele>11</ele>
        <time>2022-08-14T21:58:13Z</time>
      </trkpt>
      <trkpt lat="43.12337" lon="5.81429">
        <ele>11</ele>
        <time>2022-08-14T21:58:31Z</time>
      </trkpt>
      <trkpt lat="43.12407" lon="5.81383">
        <ele>17</ele>
        <time>2022-08-14T21:58:44Z</time>
      </trkpt>
      <trkpt lat="43.12418" lon="5.81341">
        <ele>18</ele>
        <time>2022-08-14T21:58:50Z</time>
      </trkpt>
      <trkpt lat="43.12426" lon="5.813">
        <ele>20</ele>
        <time>2022-08-14T21:58:56Z</time>
      </trkpt>
      <trkpt lat="43.12431" lon="5.81267">
        <ele>21</ele>
        <time>2022-08-14T21:59:00Z</time>
      </trkpt>
      <trkpt lat="43.1243" lon="5.81257">
        <ele>21</ele>
        <time>2022-08-14T21:59:01Z</time>
      </trkpt>
      <trkpt lat="43.12433" lon="5.81255">
        <ele>21</ele>
        <time>2022-08-14T21:59:02Z</time>
      </trkpt>
      <trkpt lat="43.12435" lon="5.81251">
        <ele>21</ele>
        <time>2022-08-14T21:59:03Z</time>
      </trkpt>
      <trkpt lat="43.12435" lon="5.81246">
        <ele>22</ele>
        <time>2022-08-14T21:59:03Z</time>
      </trkpt>
      <trkpt lat="43.12433" lon="5.81242">
        <ele>22</ele>
        <time>2022-08-14T21:59:04Z</time>
      </trkpt>
      <trkpt lat="43.12436" lon="5.81233">
        <ele>23</ele>
        <time>2022-08-14T21:59:05Z</time>
      </trkpt>
      <trkpt lat="43.12442" lon="5.81178">
        <ele>27</ele>
        <time>2022-08-14T21:59:12Z</time>
      </trkpt>
      <trkpt lat="43.1245" lon="5.81175">
        <ele>28</ele>
        <time>2022-08-14T21:59:14Z</time>
      </trkpt>
      <trkpt lat="43.12465" lon="5.81179">
        <ele>30</ele>
        <time>2022-08-14T21:59:17Z</time>
      </trkpt>
      <trkpt lat="43.12471" lon="5.81183">
        <ele>30</ele>
        <time>2022-08-14T21:59:18Z</time>
      </trkpt>
      <trkpt lat="43.12471" lon="5.81188">
        <ele>30</ele>
        <time>2022-08-14T21:59:18Z</time>
      </trkpt>
      <trkpt lat="43.12462" lon="5.81217">
        <ele>27</ele>
        <time>2022-08-14T21:59:23Z</time>
      </trkpt>
      <trkpt lat="43.12449" lon="5.81289">
        <ele>23</ele>
        <time>2022-08-14T21:59:32Z</time>
      </trkpt>
      <trkpt lat="43.1245" lon="5.81302">
        <ele>23</ele>
        <time>2022-08-14T21:59:34Z</time>
      </trkpt>
      <trkpt lat="43.12457" lon="5.81314">
        <ele>23</ele>
        <time>2022-08-14T21:59:36Z</time>
      </trkpt>
      <trkpt lat="43.12525" lon="5.81383">
        <ele>29</ele>
        <time>2022-08-14T21:59:51Z</time>
      </trkpt>
      <trkpt lat="43.12569" lon="5.81455">
        <ele>31</ele>
        <time>2022-08-14T22:00:03Z</time>
      </trkpt>
      <trkpt lat="43.12572" lon="5.81463">
        <ele>30</ele>
        <time>2022-08-14T22:00:04Z</time>
      </trkpt>
      <trkpt lat="43.12568" lon="5.81469">
        <ele>30</ele>
        <time>2022-08-14T22:00:05Z</time>
      </trkpt>
      <trkpt lat="43.12569" lon="5.81478">
        <ele>29</ele>
        <time>2022-08-14T22:00:07Z</time>
      </trkpt>
      <trkpt lat="43.12574" lon="5.81484">
        <ele>29</ele>
        <time>2022-08-14T22:00:08Z</time>
      </trkpt>
      <trkpt lat="43.12577" lon="5.81484">
        <ele>30</ele>
        <time>2022-08-14T22:00:08Z</time>
      </trkpt>
      <trkpt lat="43.12582" lon="5.81479">
        <ele>30</ele>
        <time>2022-08-14T22:00:09Z</time>
      </trkpt>
      <trkpt lat="43.12596" lon="5.81488">
        <ele>31</ele>
        <time>2022-08-14T22:00:12Z</time>
      </trkpt>
      <trkpt lat="43.126" lon="5.8149">
        <ele>31</ele>
        <time>2022-08-14T22:00:13Z</time>
      </trkpt>
      <trkpt lat="43.12624" lon="5.8152">
        <ele>31</ele>
        <time>2022-08-14T22:00:19Z</time>
      </trkpt>
      <trkpt lat="43.12658" lon="5.81571">
        <ele>30</ele>
        <time>2022-08-14T22:00:28Z</time>
      </trkpt>
      <trkpt lat="43.12664" lon="5.81582">
        <ele>30</ele>
        <time>2022-08-14T22:00:29Z</time>
      </trkpt>
      <trkpt lat="43.12672" lon="5.81591">
        <ele>30</ele>
        <time>2022-08-14T22:00:31Z</time>
      </trkpt>
      <trkpt lat="43.12675" lon="5.81598">
        <ele>30</ele>
        <time>2022-08-14T22:00:32Z</time>
      </trkpt>
      <trkpt lat="43.12679" lon="5.81601">
        <ele>30</ele>
        <time>2022-08-14T22:00:33Z</time>
      </trkpt>
      <trkpt lat="43.12685" lon="5.816">
        <ele>31</ele>
        <time>2022-08-14T22:00:34Z</time>
      </trkpt>
      <trkpt lat="43.12689" lon="5.81595">
        <ele>31</ele>
        <time>2022-08-14T22:00:35Z</time>
      </trkpt>
      <trkpt lat="43.12691" lon="5.81585">
        <ele>32</ele>
        <time>2022-08-14T22:00:36Z</time>
      </trkpt>
      <trkpt lat="43.12698" lon="5.81564">
        <ele>34</ele>
        <time>2022-08-14T22:00:39Z</time>
      </trkpt>
      <trkpt lat="43.127" lon="5.8155">
        <ele>35</ele>
        <time>2022-08-14T22:00:41Z</time>
      </trkpt>
      <trkpt lat="43.12715" lon="5.81434">
        <ele>42</ele>
        <time>2022-08-14T22:00:57Z</time>
      </trkpt>
      <trkpt lat="43.12735" lon="5.81236">
        <ele>38</ele>
        <time>2022-08-14T22:01:23Z</time>
      </trkpt>
      <trkpt lat="43.12741" lon="5.81155">
        <ele>37</ele>
        <time>2022-08-14T22:01:33Z</time>
      </trkpt>
      <trkpt lat="43.12748" lon="5.81087">
        <ele>32</ele>
        <time>2022-08-14T22:01:42Z</time>
      </trkpt>
      <trkpt lat="43.12757" lon="5.81041">
        <ele>30</ele>
        <time>2022-08-14T22:01:48Z</time>
      </trkpt>
      <trkpt lat="43.12762" lon="5.80999">
        <ele>29</ele>
        <time>2022-08-14T22:01:54Z</time>
      </trkpt>
      <trkpt lat="43.12765" lon="5.80897">
        <ele>29</ele>
        <time>2022-08-14T22:02:07Z</time>
      </trkpt>
      <trkpt lat="43.12772" lon="5.80813">
        <ele>29</ele>
        <time>2022-08-14T22:02:18Z</time>
      </trkpt>
      <trkpt lat="43.12775" lon="5.80789">
        <ele>29</ele>
        <time>2022-08-14T22:02:21Z</time>
      </trkpt>
      <trkpt lat="43.12788" lon="5.80731">
        <ele>31</ele>
        <time>2022-08-14T22:02:29Z</time>
      </trkpt>
      <trkpt lat="43.12795" lon="5.80694">
        <ele>32</ele>
        <time>2022-08-14T22:02:34Z</time>
      </trkpt>
      <trkpt lat="43.12796" lon="5.80673">
        <ele>33</ele>
        <time>2022-08-14T22:02:37Z</time>
      </trkpt>
      <trkpt lat="43.12801" lon="5.80666">
        <ele>34</ele>
        <time>2022-08-14T22:02:38Z</time>
      </trkpt>
      <trkpt lat="43.12802" lon="5.8066">
        <ele>34</ele>
        <time>2022-08-14T22:02:39Z</time>
      </trkpt>
      <trkpt lat="43.12802" lon="5.8065">
        <ele>34</ele>
        <time>2022-08-14T22:02:40Z</time>
      </trkpt>
      <trkpt lat="43.12813" lon="5.80621">
        <ele>34</ele>
        <time>2022-08-14T22:02:44Z</time>
      </trkpt>
      <trkpt lat="43.1282" lon="5.80608">
        <ele>34</ele>
        <time>2022-08-14T22:02:46Z</time>
      </trkpt>
      <trkpt lat="43.1283" lon="5.80599">
        <ele>34</ele>
        <time>2022-08-14T22:02:49Z</time>
      </trkpt>
      <trkpt lat="43.1284" lon="5.806">
        <ele>34</ele>
        <time>2022-08-14T22:02:50Z</time>
      </trkpt>
      <trkpt lat="43.12849" lon="5.80605">
        <ele>35</ele>
        <time>2022-08-14T22:02:52Z</time>
      </trkpt>
      <trkpt lat="43.12883" lon="5.80639">
        <ele>36</ele>
        <time>2022-08-14T22:03:00Z</time>
      </trkpt>
      <trkpt lat="43.12915" lon="5.80699">
        <ele>37</ele>
        <time>2022-08-14T22:03:09Z</time>
      </trkpt>
      <trkpt lat="43.12922" lon="5.8071">
        <ele>37</ele>
        <time>2022-08-14T22:03:11Z</time>
      </trkpt>
      <trkpt lat="43.12967" lon="5.8076">
        <ele>37</ele>
        <time>2022-08-14T22:03:21Z</time>
      </trkpt>
      <trkpt lat="43.13019" lon="5.80806">
        <ele>40</ele>
        <time>2022-08-14T22:03:32Z</time>
      </trkpt>
      <trkpt lat="43.13037" lon="5.80826">
        <ele>41</ele>
        <time>2022-08-14T22:03:37Z</time>
      </trkpt>
      <trkpt lat="43.13045" lon="5.80837">
        <ele>41</ele>
        <time>2022-08-14T22:03:39Z</time>
      </trkpt>
      <trkpt lat="43.13116" lon="5.80754">
        <ele>46</ele>
        <time>2022-08-14T22:03:55Z</time>
      </trkpt>
      <trkpt lat="43.13128" lon="5.8073">
        <ele>46</ele>
        <time>2022-08-14T22:03:59Z</time>
      </trkpt>
      <trkpt lat="43.13157" lon="5.80691">
        <ele>47</ele>
        <time>2022-08-14T22:04:06Z</time>
      </trkpt>
      <trkpt lat="43.13166" lon="5.80691">
        <ele>47</ele>
        <time>2022-08-14T22:04:08Z</time>
      </trkpt>
      <trkpt lat="43.13189" lon="5.80708">
        <ele>49</ele>
        <time>2022-08-14T22:04:12Z</time>
      </trkpt>
      <trkpt lat="43.13196" lon="5.80697">
        <ele>50</ele>
        <time>2022-08-14T22:04:14Z</time>
      </trkpt>
      <trkpt lat="43.13207" lon="5.80673">
        <ele>50</ele>
        <time>2022-08-14T22:04:18Z</time>
      </trkpt>
      <trkpt lat="43.13218" lon="5.80663">
        <ele>51</ele>
        <time>2022-08-14T22:04:20Z</time>
      </trkpt>
      <trkpt lat="43.13233" lon="5.80618">
        <ele>50</ele>
        <time>2022-08-14T22:04:27Z</time>
      </trkpt>
      <trkpt lat="43.13245" lon="5.80576">
        <ele>50</ele>
        <time>2022-08-14T22:04:33Z</time>
      </trkpt>
      <trkpt lat="43.13263" lon="5.80536">
        <ele>49</ele>
        <time>2022-08-14T22:04:39Z</time>
      </trkpt>
      <trkpt lat="43.13279" lon="5.80535">
        <ele>50</ele>
        <time>2022-08-14T22:04:42Z</time>
      </trkpt>
      <trkpt lat="43.13335" lon="5.80553">
        <ele>54</ele>
        <time>2022-08-14T22:04:52Z</time>
      </trkpt>
      <trkpt lat="43.13364" lon="5.8056">
        <ele>56</ele>
        <time>2022-08-14T22:04:57Z</time>
      </trkpt>
      <trkpt lat="43.13381" lon="5.80569">
        <ele>58</ele>
        <time>2022-08-14T22:05:00Z</time>
      </trkpt>
      <trkpt lat="43.13427" lon="5.80612">
        <ele>60</ele>
        <time>2022-08-14T22:05:10Z</time>
      </trkpt>
      <trkpt lat="43.13441" lon="5.80621">
        <ele>60</ele>
        <time>2022-08-14T22:05:13Z</time>
      </trkpt>
      <trkpt lat="43.13458" lon="5.80628">
        <ele>60</ele>
        <time>2022-08-14T22:05:16Z</time>
      </trkpt>
      <trkpt lat="43.13482" lon="5.80655">
        <ele>60</ele>
        <time>2022-08-14T22:05:22Z</time>
      </trkpt>
      <trkpt lat="43.13484" lon="5.80659">
        <ele>60</ele>
        <time>2022-08-14T22:05:22Z</time>
      </trkpt>
      <trkpt lat="43.1349" lon="5.80663">
        <ele>60</ele>
        <time>2022-08-14T22:05:23Z</time>
      </trkpt>
      <trkpt lat="43.13506" lon="5.80664">
        <ele>60</ele>
        <time>2022-08-14T22:05:26Z</time>
      </trkpt>
      <trkpt lat="43.13541" lon="5.80692">
        <ele>60</ele>
        <time>2022-08-14T22:05:34Z</time>
      </trkpt>
      <trkpt lat="43.13563" lon="5.8071">
        <ele>59</ele>
        <time>2022-08-14T22:05:38Z</time>
      </trkpt>
      <trkpt lat="43.1364" lon="5.8057">
        <ele>65</ele>
        <time>2022-08-14T22:06:01Z</time>
      </trkpt>
      <trkpt lat="43.13768" lon="5.80289">
        <ele>73</ele>
        <time>2022-08-14T22:06:44Z</time>
      </trkpt>
      <trkpt lat="43.13822" lon="5.80154">
        <ele>70</ele>
        <time>2022-08-14T22:07:04Z</time>
      </trkpt>
      <trkpt lat="43.13899" lon="5.79934">
        <ele>73</ele>
        <time>2022-08-14T22:07:36Z</time>
      </trkpt>
      <trkpt lat="43.13903" lon="5.79934">
        <ele>74</ele>
        <time>2022-08-14T22:07:36Z</time>
      </trkpt>
      <trkpt lat="43.13906" lon="5.79931">
        <ele>74</ele>
        <time>2022-08-14T22:07:37Z</time>
      </trkpt>
      <trkpt lat="43.13915" lon="5.79936">
        <ele>75</ele>
        <time>2022-08-14T22:07:39Z</time>
      </trkpt>
      <trkpt lat="43.13958" lon="5.79964">
        <ele>79</ele>
        <time>2022-08-14T22:07:47Z</time>
      </trkpt>
      <trkpt lat="43.13963" lon="5.79968">
        <ele>80</ele>
        <time>2022-08-14T22:07:48Z</time>
      </trkpt>
      <trkpt lat="43.13963" lon="5.79976">
        <ele>80</ele>
        <time>2022-08-14T22:07:49Z</time>
      </trkpt>
      <trkpt lat="43.13965" lon="5.79983">
        <ele>81</ele>
        <time>2022-08-14T22:07:50Z</time>
      </trkpt>
      <trkpt lat="43.13968" lon="5.79985">
        <ele>81</ele>
        <time>2022-08-14T22:07:51Z</time>
      </trkpt>
      <trkpt lat="43.13974" lon="5.79986">
        <ele>81</ele>
        <time>2022-08-14T22:07:52Z</time>
      </trkpt>
      <trkpt lat="43.13977" lon="5.79984">
        <ele>82</ele>
        <time>2022-08-14T22:07:52Z</time>
      </trkpt>
      <trkpt lat="43.1398" lon="5.79978">
        <ele>82</ele>
        <time>2022-08-14T22:07:53Z</time>
      </trkpt>
      <trkpt lat="43.13981" lon="5.79974">
        <ele>81</ele>
        <time>2022-08-14T22:07:54Z</time>
      </trkpt>
      <trkpt lat="43.13979" lon="5.79966">
        <ele>81</ele>
        <time>2022-08-14T22:07:55Z</time>
      </trkpt>
      <trkpt lat="43.13974" lon="5.79961">
        <ele>80</ele>
        <time>2022-08-14T22:07:56Z</time>
      </trkpt>
      <trkpt lat="43.13975" lon="5.79951">
        <ele>80</ele>
        <time>2022-08-14T22:07:57Z</time>
      </trkpt>
      <trkpt lat="43.13996" lon="5.79861">
        <ele>78</ele>
        <time>2022-08-14T22:08:10Z</time>
      </trkpt>
      <trkpt lat="43.14021" lon="5.79785">
        <ele>76</ele>
        <time>2022-08-14T22:08:21Z</time>
      </trkpt>
      <trkpt lat="43.14041" lon="5.79728">
        <ele>75</ele>
        <time>2022-08-14T22:08:29Z</time>
      </trkpt>
      <trkpt lat="43.14047" lon="5.79715">
        <ele>75</ele>
        <time>2022-08-14T22:08:31Z</time>
      </trkpt>
      <trkpt lat="43.14052" lon="5.79715">
        <ele>75</ele>
        <time>2022-08-14T22:08:32Z</time>
      </trkpt>
      <trkpt lat="43.14054" lon="5.79712">
        <ele>75</ele>
        <time>2022-08-14T22:08:32Z</time>
      </trkpt>
      <trkpt lat="43.14054" lon="5.79705">
        <ele>75</ele>
        <time>2022-08-14T22:08:33Z</time>
      </trkpt>
      <trkpt lat="43.14051" lon="5.79703">
        <ele>74</ele>
        <time>2022-08-14T22:08:34Z</time>
      </trkpt>
      <trkpt lat="43.14053" lon="5.79694">
        <ele>74</ele>
        <time>2022-08-14T22:08:35Z</time>
      </trkpt>
      <trkpt lat="43.14095" lon="5.7957">
        <ele>74</ele>
        <time>2022-08-14T22:08:53Z</time>
      </trkpt>
      <trkpt lat="43.1412" lon="5.79481">
        <ele>76</ele>
        <time>2022-08-14T22:09:05Z</time>
      </trkpt>
      <trkpt lat="43.14151" lon="5.79346">
        <ele>81</ele>
        <time>2022-08-14T22:09:23Z</time>
      </trkpt>
      <trkpt lat="43.14161" lon="5.79291">
        <ele>84</ele>
        <time>2022-08-14T22:09:31Z</time>
      </trkpt>
      <trkpt lat="43.14173" lon="5.79247">
        <ele>87</ele>
        <time>2022-08-14T22:09:37Z</time>
      </trkpt>
      <trkpt lat="43.14206" lon="5.79158">
        <ele>95</ele>
        <time>2022-08-14T22:09:50Z</time>
      </trkpt>
      <trkpt lat="43.1426" lon="5.79028">
        <ele>99</ele>
        <time>2022-08-14T22:10:09Z</time>
      </trkpt>
      <trkpt lat="43.14302" lon="5.78944">
        <ele>96</ele>
        <time>2022-08-14T22:10:22Z</time>
      </trkpt>
      <trkpt lat="43.14314" lon="5.78922">
        <ele>95</ele>
        <time>2022-08-14T22:10:26Z</time>
      </trkpt>
      <trkpt lat="43.14332" lon="5.789">
        <ele>95</ele>
        <time>2022-08-14T22:10:30Z</time>
      </trkpt>
      <trkpt lat="43.14371" lon="5.78868">
        <ele>96</ele>
        <time>2022-08-14T22:10:38Z</time>
      </trkpt>
      <trkpt lat="43.14399" lon="5.78839">
        <ele>94</ele>
        <time>2022-08-14T22:10:45Z</time>
      </trkpt>
      <trkpt lat="43.14416" lon="5.78814">
        <ele>93</ele>
        <time>2022-08-14T22:10:49Z</time>
      </trkpt>
      <trkpt lat="43.14451" lon="5.78748">
        <ele>91</ele>
        <time>2022-08-14T22:11:00Z</time>
      </trkpt>
      <trkpt lat="43.14456" lon="5.78729">
        <ele>89</ele>
        <time>2022-08-14T22:11:02Z</time>
      </trkpt>
      <trkpt lat="43.14466" lon="5.7868">
        <ele>84</ele>
        <time>2022-08-14T22:11:09Z</time>
      </trkpt>
      <trkpt lat="43.14474" lon="5.78653">
        <ele>82</ele>
        <time>2022-08-14T22:11:13Z</time>
      </trkpt>
      <trkpt lat="43.14483" lon="5.78631">
        <ele>80</ele>
        <time>2022-08-14T22:11:16Z</time>
      </trkpt>
      <trkpt lat="43.1451" lon="5.78588">
        <ele>78</ele>
        <time>2022-08-14T22:11:23Z</time>
      </trkpt>
      <trkpt lat="43.14531" lon="5.78567">
        <ele>78</ele>
        <time>2022-08-14T22:11:28Z</time>
      </trkpt>
      <trkpt lat="43.1466" lon="5.78474">
        <ele>82</ele>
        <time>2022-08-14T22:11:54Z</time>
      </trkpt>
      <trkpt lat="43.14666" lon="5.78466">
        <ele>82</ele>
        <time>2022-08-14T22:11:55Z</time>
      </trkpt>
      <trkpt lat="43.14685" lon="5.78439">
        <ele>79</ele>
        <time>2022-08-14T22:12:00Z</time>
      </trkpt>
      <trkpt lat="43.1469" lon="5.78437">
        <ele>79</ele>
        <time>2022-08-14T22:12:01Z</time>
      </trkpt>
      <trkpt lat="43.14694" lon="5.78432">
        <ele>79</ele>
        <time>2022-08-14T22:12:02Z</time>
      </trkpt>
      <trkpt lat="43.14693" lon="5.7842">
        <ele>77</ele>
        <time>2022-08-14T22:12:04Z</time>
      </trkpt>
      <trkpt lat="43.14691" lon="5.78416">
        <ele>77</ele>
        <time>2022-08-14T22:12:04Z</time>
      </trkpt>
      <trkpt lat="43.14681" lon="5.78412">
        <ele>77</ele>
        <time>2022-08-14T22:12:06Z</time>
      </trkpt>
      <trkpt lat="43.14674" lon="5.78405">
        <ele>78</ele>
        <time>2022-08-14T22:12:08Z</time>
      </trkpt>
      <trkpt lat="43.14654" lon="5.78365">
        <ele>80</ele>
        <time>2022-08-14T22:12:14Z</time>
      </trkpt>
      <trkpt lat="43.1463" lon="5.78294">
        <ele>80</ele>
        <time>2022-08-14T22:12:24Z</time>
      </trkpt>
      <trkpt lat="43.14623" lon="5.78286">
        <ele>79</ele>
        <time>2022-08-14T22:12:26Z</time>
      </trkpt>
      <trkpt lat="43.14603" lon="5.78273">
        <ele>76</ele>
        <time>2022-08-14T22:12:30Z</time>
      </trkpt>
      <trkpt lat="43.14557" lon="5.7825">
        <ele>71</ele>
        <time>2022-08-14T22:12:38Z</time>
      </trkpt>
      <trkpt lat="43.14521" lon="5.78236">
        <ele>70</ele>
        <time>2022-08-14T22:12:45Z</time>
      </trkpt>
      <trkpt lat="43.14491" lon="5.78236">
        <ele>68</ele>
        <time>2022-08-14T22:12:50Z</time>
      </trkpt>
      <trkpt lat="43.14481" lon="5.7824">
        <ele>67</ele>
        <time>2022-08-14T22:12:52Z</time>
      </trkpt>
      <trkpt lat="43.14468" lon="5.78246">
        <ele>65</ele>
        <time>2022-08-14T22:12:55Z</time>
      </trkpt>
      <trkpt lat="43.14353" lon="5.78349">
        <ele>55</ele>
        <time>2022-08-14T22:13:19Z</time>
      </trkpt>
      <trkpt lat="43.14351" lon="5.78333">
        <ele>54</ele>
        <time>2022-08-14T22:13:21Z</time>
      </trkpt>
      <trkpt lat="43.14351" lon="5.78295">
        <ele>54</ele>
        <time>2022-08-14T22:13:26Z</time>
      </trkpt>
      <trkpt lat="43.14357" lon="5.78258">
        <ele>54</ele>
        <time>2022-08-14T22:13:31Z</time>
      </trkpt>
      <trkpt lat="43.14389" lon="5.78179">
        <ele>56</ele>
        <time>2022-08-14T22:13:43Z</time>
      </trkpt>
      <trkpt lat="43.14405" lon="5.7813">
        <ele>57</ele>
        <time>2022-08-14T22:13:50Z</time>
      </trkpt>
      <trkpt lat="43.14407" lon="5.7811">
        <ele>57</ele>
        <time>2022-08-14T22:13:52Z</time>
      </trkpt>
      <trkpt lat="43.14376" lon="5.7793">
        <ele>56</ele>
        <time>2022-08-14T22:14:16Z</time>
      </trkpt>
      <trkpt lat="43.14381" lon="5.77905">
        <ele>55</ele>
        <time>2022-08-14T22:14:20Z</time>
      </trkpt>
      <trkpt lat="43.1437" lon="5.77869">
        <ele>52</ele>
        <time>2022-08-14T22:14:25Z</time>
      </trkpt>
      <trkpt lat="43.14373" lon="5.77821">
        <ele>50</ele>
        <time>2022-08-14T22:14:31Z</time>
      </trkpt>
      <trkpt lat="43.14372" lon="5.77627">
        <ele>42</ele>
        <time>2022-08-14T22:14:56Z</time>
      </trkpt>
      <trkpt lat="43.14365" lon="5.77514">
        <ele>43</ele>
        <time>2022-08-14T22:15:11Z</time>
      </trkpt>
      <trkpt lat="43.14363" lon="5.77486">
        <ele>42</ele>
        <time>2022-08-14T22:15:15Z</time>
      </trkpt>
      <trkpt lat="43.1436" lon="5.77482">
        <ele>42</ele>
        <time>2022-08-14T22:15:15Z</time>
      </trkpt>
      <trkpt lat="43.14336" lon="5.77468">
        <ele>43</ele>
        <time>2022-08-14T22:15:20Z</time>
      </trkpt>
      <trkpt lat="43.14328" lon="5.77491">
        <ele>43</ele>
        <time>2022-08-14T22:15:23Z</time>
      </trkpt>
      <trkpt lat="43.14324" lon="5.7751">
        <ele>43</ele>
        <time>2022-08-14T22:15:26Z</time>
      </trkpt>
      <trkpt lat="43.14283" lon="5.77725">
        <ele>39</ele>
        <time>2022-08-14T22:15:55Z</time>
      </trkpt>
      <trkpt lat="43.14276" lon="5.77752">
        <ele>39</ele>
        <time>2022-08-14T22:15:59Z</time>
      </trkpt>
      <trkpt lat="43.14264" lon="5.77778">
        <ele>38</ele>
        <time>2022-08-14T22:16:03Z</time>
      </trkpt>
      <trkpt lat="43.14254" lon="5.77793">
        <ele>38</ele>
        <time>2022-08-14T22:16:05Z</time>
      </trkpt>
      <trkpt lat="43.14232" lon="5.77818">
        <ele>38</ele>
        <time>2022-08-14T22:16:10Z</time>
      </trkpt>
      <trkpt lat="43.14217" lon="5.77843">
        <ele>38</ele>
        <time>2022-08-14T22:16:14Z</time>
      </trkpt>
      <trkpt lat="43.14182" lon="5.7791">
        <ele>41</ele>
        <time>2022-08-14T22:16:25Z</time>
      </trkpt>
      <trkpt lat="43.14144" lon="5.7797">
        <ele>44</ele>
        <time>2022-08-14T22:16:35Z</time>
      </trkpt>
      <trkpt lat="43.14123" lon="5.77935">
        <ele>43</ele>
        <time>2022-08-14T22:16:41Z</time>
      </trkpt>
    </trkseg>
  </trk>
</gpx>